Observation data for Tarzan on 07/19/2019      Previous  Date       Current Mesonet Observations  Soil Data  Daily Summary Page  Observations in Plain Language
KTA1 190500Z 17017KT 30/16 A2995 RMK A01 T03010160  RH  043%=      5-min Rain = 0
KTA1 190501Z 16014KT 30/16 A2995 RMK A01 T03010160  RH  043%=      5-min Rain = 0
KTA1 190502Z 16016KT 30/16 A2995 RMK A01 T03010160  RH  043%=      5-min Rain = 0
KTA1 190503Z 17013G18KT 30/16 A2995 RMK A01 T03010160  RH  043%=      5-min Rain = 0
KTA1 190504Z 16015G22KT 30/16 A2995 RMK A01 T03010161  RH  043%=      5-min Rain = 0
KTA1 190505Z 16014KT 30/16 A2995 RMK A01 T03000160  RH  043%=      5-min Rain = 0
KTA1 190506Z 16011G16KT 30/16 A2995 RMK A01 T03000160  RH  043%=      5-min Rain = 0
KTA1 190507Z 16012KT 30/16 A2995 RMK A01 T02990160  RH  043%=      5-min Rain = 0
KTA1 190508Z 16017KT 30/16 A2995 RMK A01 T02990159  RH  043%=      5-min Rain = 0
KTA1 190509Z 17015KT 30/16 A2995 RMK A01 T02990159  RH  043%=      5-min Rain = 0
KTA1 190510Z 17013KT 30/16 A2995 RMK A01 T02990159  RH  043%=      5-min Rain = 0
KTA1 190511Z 16012KT 30/16 A2995 RMK A01 T02990159  RH  043%=      5-min Rain = 0
KTA1 190512Z 16013G22KT 30/16 A2995 RMK A01 T02980158  RH  043%=      5-min Rain = 0
KTA1 190513Z 17016G22KT 30/16 A2995 RMK A01 T02980158  RH  043%=      5-min Rain = 0
KTA1 190514Z 16015KT 30/16 A2995 RMK A01 T02980157  RH  042%=      5-min Rain = 0
KTA1 190515Z 16014KT 30/16 A2995 RMK A01 T02980157  RH  042%=      5-min Rain = 0
KTA1 190516Z 16015KT 30/16 A2995 RMK A01 T02980157  RH  042%=      5-min Rain = 0
KTA1 190517Z 17014KT 30/16 A2995 RMK A01 T02980157  RH  042%=      5-min Rain = 0
KTA1 190518Z 17016G21KT 30/16 A2995 RMK A01 T02980157  RH  042%=      5-min Rain = 0
KTA1 190519Z 16014G20KT 30/16 A2995 RMK A01 T02980157  RH  042%=      5-min Rain = 0
KTA1 190520Z 17015G20KT 30/16 A2995 RMK A01 T02980156  RH  042%=      5-min Rain = 0
KTA1 190521Z 17015KT 30/16 A2995 RMK A01 T02980156  RH  042%=      5-min Rain = 0
KTA1 190522Z 17016KT 30/16 A2995 RMK A01 T02980156  RH  042%=      5-min Rain = 0
KTA1 190523Z 17014KT 30/16 A2995 RMK A01 T02980155  RH  042%=      5-min Rain = 0
KTA1 190524Z 17014G19KT 30/16 A2995 RMK A01 T02980155  RH  042%=      5-min Rain = 0
KTA1 190525Z 17014KT 30/16 A2995 RMK A01 T02980155  RH  042%=      5-min Rain = 0
KTA1 190526Z 17014KT 30/16 A2995 RMK A01 T02970155  RH  042%=      5-min Rain = 0
KTA1 190527Z 16015G21KT 30/16 A2995 RMK A01 T02980155  RH  042%=      5-min Rain = 0
KTA1 190528Z 16015KT 30/15 A2995 RMK A01 T02970154  RH  042%=      5-min Rain = 0
KTA1 190529Z 17014KT 30/15 A2995 RMK A01 T02970154  RH  042%=      5-min Rain = 0
KTA1 190530Z 16012G17KT 30/16 A2995 RMK A01 T02970155  RH  042%=      5-min Rain = 0
KTA1 190531Z 17015G20KT 30/15 A2995 RMK A01 T02960154  RH  042%=      5-min Rain = 0
KTA1 190532Z 16016G21KT 30/15 A2995 RMK A01 T02960153  RH  042%=      5-min Rain = 0
KTA1 190533Z 16017KT 30/15 A2995 RMK A01 T02960154  RH  042%=      5-min Rain = 0
KTA1 190534Z 16016G21KT 30/15 A2995 RMK A01 T02960153  RH  042%=      5-min Rain = 0
KTA1 190535Z 17013G18KT 30/15 A2995 RMK A01 T02960153  RH  042%=      5-min Rain = 0
KTA1 190536Z 17014KT 30/15 A2995 RMK A01 T02960153  RH  042%=      5-min Rain = 0
KTA1 190537Z 16015KT 30/15 A2995 RMK A01 T02960153  RH  042%=      5-min Rain = 0
KTA1 190538Z 16014KT 30/15 A2995 RMK A01 T02960153  RH  042%=      5-min Rain = 0
KTA1 190539Z 17014KT 30/15 A2995 RMK A01 T02960153  RH  042%=      5-min Rain = 0
KTA1 190540Z 17014KT 30/15 A2995 RMK A01 T02950152  RH  042%=      5-min Rain = 0
KTA1 190541Z 16013G19KT 30/15 A2995 RMK A01 T02960152  RH  042%=      5-min Rain = 0
KTA1 190542Z 17015KT 30/15 A2995 RMK A01 T02950152  RH  042%=      5-min Rain = 0
KTA1 190543Z 17015KT 30/15 A2995 RMK A01 T02950151  RH  042%=      5-min Rain = 0
KTA1 190544Z 17016KT 30/15 A2995 RMK A01 T02950151  RH  041%=      5-min Rain = 0
KTA1 190545Z 17019KT 30/15 A2995 RMK A01 T02960151  RH  041%=      5-min Rain = 0
KTA1 190546Z 17015KT 30/15 A2995 RMK A01 T02950150  RH  041%=      5-min Rain = 0
KTA1 190547Z 17013KT 30/15 A2995 RMK A01 T02960151  RH  041%=      5-min Rain = 0
KTA1 190548Z 17015KT 30/15 A2995 RMK A01 T02950151  RH  041%=      5-min Rain = 0
KTA1 190549Z 17012KT 30/15 A2995 RMK A01 T02950151  RH  041%=      5-min Rain = 0
KTA1 190550Z 17015KT 30/15 A2995 RMK A01 T02950150  RH  041%=      5-min Rain = 0
KTA1 190551Z 17012G17KT 30/15 A2995 RMK A01 T02950150  RH  041%=      5-min Rain = 0
KTA1 190552Z 17014G20KT 29/15 A2995 RMK A01 T02940150  RH  041%=      5-min Rain = 0
KTA1 190553Z 17014KT 29/15 A2995 RMK A01 T02940149  RH  041%=      5-min Rain = 0
KTA1 190554Z 17016KT 29/15 A2995 RMK A01 T02940149  RH  041%=      5-min Rain = 0
KTA1 190555Z 17014KT 29/15 A2995 RMK A01 T02940149  RH  041%=      5-min Rain = 0
KTA1 190556Z 16015KT 29/15 A2995 RMK A01 T02940149  RH  041%=      5-min Rain = 0
KTA1 190557Z 17012G17KT 29/15 A2995 RMK A01 T02940149  RH  041%=      5-min Rain = 0
KTA1 190558Z 16016KT 29/15 A2995 RMK A01 T02930149  RH  041%=      5-min Rain = 0
KTA1 190559Z 17012G17KT 29/15 A2995 RMK A01 T02930149  RH  041%=      5-min Rain = 0
KTA1 190600Z 16014KT 29/15 A2995 RMK A01 T02930149  RH  042%=      5-min Rain = 0
KTA1 190601Z 17014KT 29/15 A2995 RMK A01 T02920149  RH  042%=      5-min Rain = 0
KTA1 190602Z 17010G15KT 29/15 A2995 RMK A01 T02920149  RH  042%=      5-min Rain = 0
KTA1 190603Z 17015KT 29/15 A2995 RMK A01 T02920149  RH  042%=      5-min Rain = 0
KTA1 190604Z 17013KT 29/15 A2995 RMK A01 T02910149  RH  042%=      5-min Rain = 0
KTA1 190605Z 16014KT 29/15 A2995 RMK A01 T02920149  RH  042%=      5-min Rain = 0
KTA1 190606Z 16012KT 29/15 A2995 RMK A01 T02910148  RH  042%=      5-min Rain = 0
KTA1 190607Z 16014KT 29/15 A2995 RMK A01 T02910148  RH  042%=      5-min Rain = 0
KTA1 190608Z 16014KT 29/15 A2995 RMK A01 T02910148  RH  042%=      5-min Rain = 0
KTA1 190609Z 16014KT 29/15 A2995 RMK A01 T02910148  RH  042%=      5-min Rain = 0
KTA1 190610Z 17012KT 29/15 A2995 RMK A01 T02910148  RH  042%=      5-min Rain = 0
KTA1 190611Z 17013KT 29/15 A2995 RMK A01 T02900148  RH  042%=      5-min Rain = 0
KTA1 190612Z 16013KT 29/15 A2995 RMK A01 T02900148  RH  042%=      5-min Rain = 0
KTA1 190613Z 17011KT 29/15 A2995 RMK A01 T02910148  RH  042%=      5-min Rain = 0
KTA1 190614Z 17010KT 29/15 A2995 RMK A01 T02900148  RH  042%=      5-min Rain = 0
KTA1 190615Z 17011KT 29/15 A2995 RMK A01 T02890148  RH  042%=      5-min Rain = 0
KTA1 190616Z 16012KT 29/15 A2995 RMK A01 T02890148  RH  042%=      5-min Rain = 0
KTA1 190617Z 17013KT 29/15 A2995 RMK A01 T02890148  RH  042%=      5-min Rain = 0
KTA1 190618Z 17013KT 29/15 A2995 RMK A01 T02890148  RH  042%=      5-min Rain = 0
KTA1 190619Z 16012G17KT 29/15 A2995 RMK A01 T02890147  RH  042%=      5-min Rain = 0
KTA1 190620Z 16013KT 29/15 A2995 RMK A01 T02890147  RH  042%=      5-min Rain = 0
KTA1 190621Z 17011KT 29/15 A2995 RMK A01 T02890147  RH  042%=      5-min Rain = 0
KTA1 190622Z 16011KT 29/15 A2995 RMK A01 T02880147  RH  042%=      5-min Rain = 0
KTA1 190623Z 17012KT 29/15 A2995 RMK A01 T02880147  RH  042%=      5-min Rain = 0
KTA1 190624Z 17011KT 29/15 A2995 RMK A01 T02880147  RH  042%=      5-min Rain = 0
KTA1 190625Z 17014KT 29/15 A2995 RMK A01 T02880147  RH  042%=      5-min Rain = 0
KTA1 190626Z 17013KT 29/15 A2995 RMK A01 T02880146  RH  042%=      5-min Rain = 0
KTA1 190627Z 17011KT 29/15 A2995 RMK A01 T02880146  RH  042%=      5-min Rain = 0
KTA1 190628Z 17011KT 29/15 A2995 RMK A01 T02880146  RH  042%=      5-min Rain = 0
KTA1 190629Z 16011KT 29/15 A2995 RMK A01 T02880146  RH  042%=      5-min Rain = 0
KTA1 190630Z 16012KT 29/15 A2995 RMK A01 T02870146  RH  042%=      5-min Rain = 0
KTA1 190631Z 17012KT 29/15 A2995 RMK A01 T02870146  RH  042%=      5-min Rain = 0
KTA1 190632Z 17009KT 29/15 A2995 RMK A01 T02870146  RH  042%=      5-min Rain = 0
KTA1 190633Z 17009KT 29/15 A2995 RMK A01 T02860146  RH  042%=      5-min Rain = 0
KTA1 190634Z 17012KT 29/15 A2995 RMK A01 T02860146  RH  043%=      5-min Rain = 0
KTA1 190635Z 17011KT 29/15 A2995 RMK A01 T02850146  RH  043%=      5-min Rain = 0
KTA1 190636Z 17011KT 29/15 A2995 RMK A01 T02860146  RH  043%=      5-min Rain = 0
KTA1 190637Z 17011KT 29/15 A2995 RMK A01 T02850146  RH  042%=      5-min Rain = 0
KTA1 190638Z 17012G17KT 29/15 A2995 RMK A01 T02860146  RH  042%=      5-min Rain = 0
KTA1 190639Z 17010KT 29/15 A2995 RMK A01 T02850145  RH  042%=      5-min Rain = 0
KTA1 190640Z 17011KT 29/15 A2995 RMK A01 T02850146  RH  042%=      5-min Rain = 0
KTA1 190641Z 16010KT 29/15 A2995 RMK A01 T02850146  RH  043%=      5-min Rain = 0
KTA1 190642Z 16010KT 29/15 A2995 RMK A01 T02850146  RH  043%=      5-min Rain = 0
KTA1 190643Z 16010KT 29/15 A2995 RMK A01 T02850146  RH  043%=      5-min Rain = 0
KTA1 190644Z 16009KT 28/15 A2995 RMK A01 T02840145  RH  043%=      5-min Rain = 0
KTA1 190645Z 16012KT 28/15 A2995 RMK A01 T02830145  RH  043%=      5-min Rain = 0
KTA1 190646Z 16012KT 28/15 A2995 RMK A01 T02830145  RH  043%=      5-min Rain = 0
KTA1 190647Z 16009KT 28/15 A2995 RMK A01 T02830145  RH  043%=      5-min Rain = 0
KTA1 190648Z 16012KT 28/15 A2995 RMK A01 T02830145  RH  043%=      5-min Rain = 0
KTA1 190649Z 16013KT 28/15 A2995 RMK A01 T02830145  RH  043%=      5-min Rain = 0
KTA1 190650Z 16012KT 28/15 A2995 RMK A01 T02830145  RH  043%=      5-min Rain = 0
KTA1 190651Z 17012KT 28/15 A2995 RMK A01 T02830145  RH  043%=      5-min Rain = 0
KTA1 190652Z 16009KT 28/15 A2995 RMK A01 T02830145  RH  043%=      5-min Rain = 0
KTA1 190653Z 17011KT 28/15 A2995 RMK A01 T02830145  RH  043%=      5-min Rain = 0
KTA1 190654Z 16012KT 28/15 A2995 RMK A01 T02820145  RH  043%=      5-min Rain = 0
KTA1 190655Z 16011KT 28/14 A2995 RMK A01 T02820144  RH  043%=      5-min Rain = 0
KTA1 190656Z 17009KT 28/15 A2995 RMK A01 T02820145  RH  043%=      5-min Rain = 0
KTA1 190657Z 16009KT 28/15 A2995 RMK A01 T02820145  RH  043%=      5-min Rain = 0
KTA1 190658Z 17010KT 28/15 A2995 RMK A01 T02810145  RH  043%=      5-min Rain = 0
KTA1 190659Z 17011KT 28/15 A2995 RMK A01 T02810145  RH  043%=      5-min Rain = 0
KTA1 190700Z 17010KT 28/15 A2995 RMK A01 T02810145  RH  043%=      5-min Rain = 0
KTA1 190701Z 17011KT 28/15 A2995 RMK A01 T02810145  RH  043%=      5-min Rain = 0
KTA1 190702Z 17011KT 28/14 A2995 RMK A01 T02810144  RH  043%=      5-min Rain = 0
KTA1 190703Z 17011G16KT 28/14 A2995 RMK A01 T02810144  RH  043%=      5-min Rain = 0
KTA1 190704Z 17011KT 28/14 A2995 RMK A01 T02810144  RH  043%=      5-min Rain = 0
KTA1 190705Z 17010KT 28/14 A2995 RMK A01 T02810144  RH  043%=      5-min Rain = 0
KTA1 190706Z 17010KT 28/14 A2995 RMK A01 T02810144  RH  043%=      5-min Rain = 0
KTA1 190707Z 17011KT 28/14 A2995 RMK A01 T02810144  RH  043%=      5-min Rain = 0
KTA1 190708Z 17010KT 28/14 A2995 RMK A01 T02810144  RH  043%=      5-min Rain = 0
KTA1 190709Z 17011KT 28/14 A2995 RMK A01 T02810144  RH  043%=      5-min Rain = 0
KTA1 190710Z 17013KT 28/14 A2995 RMK A01 T02810144  RH  043%=      5-min Rain = 0
KTA1 190711Z 17010KT 28/14 A2995 RMK A01 T02810144  RH  043%=      5-min Rain = 0
KTA1 190712Z 17011KT 28/14 A2995 RMK A01 T02810144  RH  043%=      5-min Rain = 0
KTA1 190713Z 17012KT 28/14 A2995 RMK A01 T02810144  RH  043%=      5-min Rain = 0
KTA1 190714Z 17012KT 28/14 A2994 RMK A01 T02810144  RH  043%=      5-min Rain = 0
KTA1 190715Z 17013KT 28/14 A2994 RMK A01 T02810144  RH  043%=      5-min Rain = 0
KTA1 190716Z 16010KT 28/14 A2994 RMK A01 T02810144  RH  043%=      5-min Rain = 0
KTA1 190717Z 16010KT 28/14 A2995 RMK A01 T02810144  RH  043%=      5-min Rain = 0
KTA1 190718Z 16011KT 28/14 A2995 RMK A01 T02800144  RH  043%=      5-min Rain = 0
KTA1 190719Z 16011KT 28/14 A2994 RMK A01 T02800144  RH  043%=      5-min Rain = 0
KTA1 190720Z 17009KT 28/14 A2995 RMK A01 T02790143  RH  043%=      5-min Rain = 0
KTA1 190721Z 17009KT 28/14 A2995 RMK A01 T02790144  RH  043%=      5-min Rain = 0
KTA1 190722Z 16009KT 28/14 A2995 RMK A01 T02790144  RH  044%=      5-min Rain = 0
KTA1 190723Z 16009KT 28/14 A2994 RMK A01 T02780144  RH  044%=      5-min Rain = 0
KTA1 190724Z 16009KT 28/14 A2994 RMK A01 T02770144  RH  044%=      5-min Rain = 0
KTA1 190725Z 16010KT 28/14 A2994 RMK A01 T02780144  RH  044%=      5-min Rain = 0
KTA1 190726Z 16011KT 28/14 A2994 RMK A01 T02780144  RH  044%=      5-min Rain = 0
KTA1 190727Z 16010KT 28/14 A2994 RMK A01 T02770143  RH  044%=      5-min Rain = 0
KTA1 190728Z 17010KT 28/14 A2994 RMK A01 T02770143  RH  044%=      5-min Rain = 0
KTA1 190729Z 17011KT 28/14 A2994 RMK A01 T02770143  RH  044%=      5-min Rain = 0
KTA1 190730Z 17012KT 28/14 A2994 RMK A01 T02770143  RH  044%=      5-min Rain = 0
KTA1 190731Z 17009KT 28/14 A2994 RMK A01 T02770143  RH  044%=      5-min Rain = 0
KTA1 190732Z 17011KT 28/14 A2994 RMK A01 T02770143  RH  044%=      5-min Rain = 0
KTA1 190733Z 17011KT 28/14 A2994 RMK A01 T02770143  RH  044%=      5-min Rain = 0
KTA1 190734Z 17009KT 28/14 A2994 RMK A01 T02780143  RH  044%=      5-min Rain = 0
KTA1 190735Z 17011KT 28/14 A2994 RMK A01 T02780144  RH  044%=      5-min Rain = 0
KTA1 190736Z 17011KT 28/14 A2994 RMK A01 T02780143  RH  044%=      5-min Rain = 0
KTA1 190737Z 17009KT 28/14 A2994 RMK A01 T02780144  RH  044%=      5-min Rain = 0
KTA1 190738Z 17011KT 28/14 A2994 RMK A01 T02770144  RH  044%=      5-min Rain = 0
KTA1 190739Z 16011KT 28/14 A2994 RMK A01 T02770143  RH  044%=      5-min Rain = 0
KTA1 190740Z 17009KT 28/14 A2994 RMK A01 T02770143  RH  044%=      5-min Rain = 0
KTA1 190741Z 16009KT 28/14 A2994 RMK A01 T02770143  RH  044%=      5-min Rain = 0
KTA1 190742Z 16009KT 28/14 A2994 RMK A01 T02760143  RH  044%=      5-min Rain = 0
KTA1 190743Z 16009KT 28/14 A2994 RMK A01 T02760143  RH  044%=      5-min Rain = 0
KTA1 190744Z 16011KT 28/14 A2994 RMK A01 T02760143  RH  044%=      5-min Rain = 0
KTA1 190745Z 17011KT 28/14 A2994 RMK A01 T02750143  RH  044%=      5-min Rain = 0
KTA1 190746Z 16009KT 28/14 A2994 RMK A01 T02750143  RH  044%=      5-min Rain = 0
KTA1 190747Z 16011KT 28/14 A2994 RMK A01 T02750143  RH  044%=      5-min Rain = 0
KTA1 190748Z 16009KT 27/14 A2994 RMK A01 T02740143  RH  045%=      5-min Rain = 0
KTA1 190749Z 16011KT 27/14 A2994 RMK A01 T02740143  RH  045%=      5-min Rain = 0
KTA1 190750Z 16011KT 27/14 A2994 RMK A01 T02740143  RH  045%=      5-min Rain = 0
KTA1 190751Z 16011KT 27/14 A2994 RMK A01 T02740143  RH  045%=      5-min Rain = 0
KTA1 190752Z 17011KT 27/14 A2994 RMK A01 T02740143  RH  045%=      5-min Rain = 0
KTA1 190753Z 16011KT 27/14 A2994 RMK A01 T02740143  RH  045%=      5-min Rain = 0
KTA1 190754Z 16011KT 27/14 A2994 RMK A01 T02740143  RH  045%=      5-min Rain = 0
KTA1 190755Z 16011KT 27/14 A2994 RMK A01 T02740143  RH  045%=      5-min Rain = 0
KTA1 190756Z 16012KT 27/14 A2994 RMK A01 T02740143  RH  045%=      5-min Rain = 0
KTA1 190757Z 16011KT 27/14 A2994 RMK A01 T02740143  RH  045%=      5-min Rain = 0
KTA1 190758Z 16010KT 27/14 A2994 RMK A01 T02740143  RH  045%=      5-min Rain = 0
KTA1 190759Z 16010KT 27/14 A2994 RMK A01 T02730143  RH  045%=      5-min Rain = 0
KTA1 190800Z 16011KT 27/14 A2994 RMK A01 T02720143  RH  045%=      5-min Rain = 0
KTA1 190801Z 16010KT 27/14 A2994 RMK A01 T02720143  RH  045%=      5-min Rain = 0
KTA1 190802Z 16010KT 27/14 A2994 RMK A01 T02720143  RH  045%=      5-min Rain = 0
KTA1 190803Z 16010KT 27/14 A2994 RMK A01 T02710143  RH  045%=      5-min Rain = 0
KTA1 190804Z 16011KT 27/14 A2994 RMK A01 T02700143  RH  046%=      5-min Rain = 0
KTA1 190805Z 16011KT 27/14 A2994 RMK A01 T02700143  RH  046%=      5-min Rain = 0
KTA1 190806Z 16011KT 27/14 A2994 RMK A01 T02700143  RH  046%=      5-min Rain = 0
KTA1 190807Z 16011KT 27/14 A2994 RMK A01 T02700143  RH  046%=      5-min Rain = 0
KTA1 190808Z 16010KT 27/14 A2994 RMK A01 T02690143  RH  046%=      5-min Rain = 0
KTA1 190809Z 16010KT 27/14 A2994 RMK A01 T02690143  RH  046%=      5-min Rain = 0
KTA1 190810Z 16011KT 27/14 A2994 RMK A01 T02680143  RH  046%=      5-min Rain = 0
KTA1 190811Z 16009KT 27/14 A2994 RMK A01 T02680143  RH  046%=      5-min Rain = 0
KTA1 190812Z 16010KT 27/14 A2994 RMK A01 T02680143  RH  046%=      5-min Rain = 0
KTA1 190813Z 16009KT 27/14 A2994 RMK A01 T02680143  RH  046%=      5-min Rain = 0
KTA1 190814Z 16010KT 27/14 A2994 RMK A01 T02670143  RH  046%=      5-min Rain = 0
KTA1 190815Z 16010KT 27/14 A2994 RMK A01 T02670143  RH  047%=      5-min Rain = 0
KTA1 190816Z 16010KT 27/14 A2994 RMK A01 T02670143  RH  047%=      5-min Rain = 0
KTA1 190817Z 16011KT 27/14 A2994 RMK A01 T02660143  RH  047%=      5-min Rain = 0
KTA1 190818Z 16010KT 27/14 A2994 RMK A01 T02660143  RH  047%=      5-min Rain = 0
KTA1 190819Z 16010KT 27/14 A2994 RMK A01 T02660143  RH  047%=      5-min Rain = 0
KTA1 190820Z 16010KT 27/14 A2994 RMK A01 T02660143  RH  047%=      5-min Rain = 0
KTA1 190821Z 16011KT 27/14 A2994 RMK A01 T02650143  RH  047%=      5-min Rain = 0
KTA1 190822Z 16010KT 27/14 A2994 RMK A01 T02650143  RH  047%=      5-min Rain = 0
KTA1 190823Z 16010KT 27/14 A2994 RMK A01 T02650143  RH  047%=      5-min Rain = 0
KTA1 190824Z 15009KT 26/14 A2994 RMK A01 T02640144  RH  047%=      5-min Rain = 0
KTA1 190825Z 16009KT 26/14 A2994 RMK A01 T02640144  RH  048%=      5-min Rain = 0
KTA1 190826Z 16009KT 26/14 A2994 RMK A01 T02630144  RH  048%=      5-min Rain = 0
KTA1 190827Z 16009KT 26/14 A2994 RMK A01 T02630144  RH  048%=      5-min Rain = 0
KTA1 190828Z 15010KT 26/14 A2994 RMK A01 T02620143  RH  048%=      5-min Rain = 0
KTA1 190829Z 16010KT 26/14 A2994 RMK A01 T02620144  RH  048%=      5-min Rain = 0
KTA1 190830Z 16010KT 26/14 A2994 RMK A01 T02620144  RH  048%=      5-min Rain = 0
KTA1 190831Z 16009KT 26/14 A2994 RMK A01 T02620143  RH  048%=      5-min Rain = 0
KTA1 190832Z 16009KT 26/14 A2994 RMK A01 T02620144  RH  048%=      5-min Rain = 0
KTA1 190833Z 16009KT 26/14 A2994 RMK A01 T02610143  RH  048%=      5-min Rain = 0
KTA1 190834Z 16010KT 26/14 A2994 RMK A01 T02610144  RH  048%=      5-min Rain = 0
KTA1 190835Z 16009KT 26/14 A2994 RMK A01 T02610143  RH  048%=      5-min Rain = 0
KTA1 190836Z 16010KT 26/14 A2994 RMK A01 T02610144  RH  048%=      5-min Rain = 0
KTA1 190837Z 16008KT 26/14 A2994 RMK A01 T02610144  RH  048%=      5-min Rain = 0
KTA1 190838Z 16010KT 26/14 A2994 RMK A01 T02600143  RH  048%=      5-min Rain = 0
KTA1 190839Z 16009KT 26/14 A2994 RMK A01 T02600143  RH  049%=      5-min Rain = 0
KTA1 190840Z 16010KT 26/14 A2994 RMK A01 T02600144  RH  049%=      5-min Rain = 0
KTA1 190841Z 16008KT 26/14 A2994 RMK A01 T02600144  RH  049%=      5-min Rain = 0
KTA1 190842Z 16009KT 26/14 A2994 RMK A01 T02600144  RH  049%=      5-min Rain = 0
KTA1 190843Z 16009KT 26/14 A2994 RMK A01 T02600144  RH  049%=      5-min Rain = 0
KTA1 190844Z 16010KT 26/14 A2994 RMK A01 T02590144  RH  049%=      5-min Rain = 0
KTA1 190845Z 16009KT 26/14 A2994 RMK A01 T02590144  RH  049%=      5-min Rain = 0
KTA1 190846Z 16009KT 26/14 A2994 RMK A01 T02600144  RH  049%=      5-min Rain = 0
KTA1 190847Z 16009KT 26/14 A2994 RMK A01 T02590144  RH  049%=      5-min Rain = 0
KTA1 190848Z 16008KT 26/14 A2994 RMK A01 T02590144  RH  049%=      5-min Rain = 0
KTA1 190849Z 16009KT 26/14 A2994 RMK A01 T02590144  RH  049%=      5-min Rain = 0
KTA1 190850Z 16010KT 26/14 A2994 RMK A01 T02590144  RH  049%=      5-min Rain = 0
KTA1 190851Z 16010KT 26/14 A2994 RMK A01 T02590144  RH  049%=      5-min Rain = 0
KTA1 190852Z 16008KT 26/14 A2994 RMK A01 T02590144  RH  049%=      5-min Rain = 0
KTA1 190853Z 16009KT 26/14 A2994 RMK A01 T02580144  RH  049%=      5-min Rain = 0
KTA1 190854Z 16009KT 26/14 A2994 RMK A01 T02580144  RH  049%=      5-min Rain = 0
KTA1 190855Z 16008KT 26/14 A2994 RMK A01 T02580144  RH  049%=      5-min Rain = 0
KTA1 190856Z 16009KT 26/14 A2994 RMK A01 T02580144  RH  049%=      5-min Rain = 0
KTA1 190857Z 15010KT 26/14 A2994 RMK A01 T02580144  RH  050%=      5-min Rain = 0
KTA1 190858Z 15009KT 26/14 A2994 RMK A01 T02580144  RH  050%=      5-min Rain = 0
KTA1 190859Z 16009KT 26/14 A2994 RMK A01 T02570144  RH  050%=      5-min Rain = 0
KTA1 190900Z 15009KT 26/14 A2994 RMK A01 T02570144  RH  050%=      5-min Rain = 0
KTA1 190901Z 16008KT 26/14 A2994 RMK A01 T02570144  RH  050%=      5-min Rain = 0
KTA1 190902Z 16010KT 26/14 A2994 RMK A01 T02570144  RH  050%=      5-min Rain = 0
KTA1 190903Z 15009KT 26/14 A2994 RMK A01 T02570144  RH  050%=      5-min Rain = 0
KTA1 190904Z 16009KT 26/14 A2994 RMK A01 T02570144  RH  050%=      5-min Rain = 0
KTA1 190905Z 16009KT 26/14 A2994 RMK A01 T02570144  RH  050%=      5-min Rain = 0
KTA1 190906Z 16011KT 26/14 A2994 RMK A01 T02570144  RH  050%=      5-min Rain = 0
KTA1 190907Z 16010KT 26/14 A2994 RMK A01 T02580144  RH  050%=      5-min Rain = 0
KTA1 190908Z 16009KT 26/14 A2994 RMK A01 T02580144  RH  049%=      5-min Rain = 0
KTA1 190909Z 16010KT 26/14 A2994 RMK A01 T02580144  RH  049%=      5-min Rain = 0
KTA1 190910Z 17010KT 26/15 A2994 RMK A01 T02590145  RH  049%=      5-min Rain = 0
KTA1 190911Z 16009KT 26/15 A2994 RMK A01 T02590145  RH  049%=      5-min Rain = 0
KTA1 190912Z 16011KT 26/15 A2994 RMK A01 T02590145  RH  049%=      5-min Rain = 0
KTA1 190913Z 17011KT 26/15 A2994 RMK A01 T02600145  RH  049%=      5-min Rain = 0
KTA1 190914Z 17012KT 26/15 A2994 RMK A01 T02610145  RH  049%=      5-min Rain = 0
KTA1 190915Z 16012KT 26/15 A2994 RMK A01 T02610145  RH  049%=      5-min Rain = 0
KTA1 190916Z 16012KT 26/15 A2994 RMK A01 T02620146  RH  049%=      5-min Rain = 0
KTA1 190917Z 17011KT 26/15 A2994 RMK A01 T02620146  RH  049%=      5-min Rain = 0
KTA1 190918Z 16013KT 26/15 A2994 RMK A01 T02630147  RH  049%=      5-min Rain = 0
KTA1 190919Z 16012KT 26/15 A2994 RMK A01 T02640147  RH  049%=      5-min Rain = 0
KTA1 190920Z 17012KT 26/15 A2994 RMK A01 T02640148  RH  049%=      5-min Rain = 0
KTA1 190921Z 17012KT 26/15 A2994 RMK A01 T02640147  RH  049%=      5-min Rain = 0
KTA1 190922Z 17014KT 27/15 A2994 RMK A01 T02650148  RH  049%=      5-min Rain = 0
KTA1 190923Z 16013KT 27/15 A2994 RMK A01 T02650148  RH  049%=      5-min Rain = 0
KTA1 190924Z 16012KT 27/15 A2994 RMK A01 T02650149  RH  049%=      5-min Rain = 0
KTA1 190925Z 17011KT 27/15 A2994 RMK A01 T02650149  RH  049%=      5-min Rain = 0
KTA1 190926Z 16012G18KT 27/15 A2994 RMK A01 T02650149  RH  049%=      5-min Rain = 0
KTA1 190927Z 17014KT 27/15 A2994 RMK A01 T02650150  RH  049%=      5-min Rain = 0
KTA1 190928Z 16013KT 27/15 A2994 RMK A01 T02650150  RH  049%=      5-min Rain = 0
KTA1 190929Z 17010G15KT 27/15 A2994 RMK A01 T02650150  RH  049%=      5-min Rain = 0
KTA1 190930Z 16010KT 27/15 A2994 RMK A01 T02650150  RH  049%=      5-min Rain = 0
KTA1 190931Z 17012KT 27/15 A2994 RMK A01 T02650151  RH  049%=      5-min Rain = 0
KTA1 190932Z 16012KT 27/15 A2994 RMK A01 T02650151  RH  050%=      5-min Rain = 0
KTA1 190933Z 17012KT 27/15 A2994 RMK A01 T02650151  RH  050%=      5-min Rain = 0
KTA1 190934Z 17011KT 27/15 A2994 RMK A01 T02650152  RH  050%=      5-min Rain = 0
KTA1 190935Z 17011KT 27/15 A2994 RMK A01 T02650152  RH  050%=      5-min Rain = 0
KTA1 190936Z 17010KT 27/15 A2994 RMK A01 T02650153  RH  050%=      5-min Rain = 0
KTA1 190937Z 17011KT 27/15 A2994 RMK A01 T02650153  RH  050%=      5-min Rain = 0
KTA1 190938Z 17013KT 27/15 A2994 RMK A01 T02650154  RH  050%=      5-min Rain = 0
KTA1 190939Z 16012G17KT 27/15 A2994 RMK A01 T02650154  RH  050%=      5-min Rain = 0
KTA1 190940Z 17012KT 27/16 A2994 RMK A01 T02660155  RH  050%=      5-min Rain = 0
KTA1 190941Z 17013KT 27/15 A2994 RMK A01 T02660154  RH  050%=      5-min Rain = 0
KTA1 190942Z 16009G14KT 27/16 A2995 RMK A01 T02660155  RH  051%=      5-min Rain = 0
KTA1 190943Z 17012KT 27/16 A2995 RMK A01 T02660155  RH  051%=      5-min Rain = 0
KTA1 190944Z 17011KT 27/16 A2995 RMK A01 T02660156  RH  051%=      5-min Rain = 0
KTA1 190945Z 17013KT 27/16 A2995 RMK A01 T02660156  RH  051%=      5-min Rain = 0
KTA1 190946Z 16009KT 27/16 A2995 RMK A01 T02660157  RH  051%=      5-min Rain = 0
KTA1 190947Z 16010KT 27/16 A2995 RMK A01 T02660157  RH  051%=      5-min Rain = 0
KTA1 190948Z 17012KT 27/16 A2995 RMK A01 T02650157  RH  051%=      5-min Rain = 0
KTA1 190949Z 17010G15KT 27/16 A2995 RMK A01 T02650157  RH  051%=      5-min Rain = 0
KTA1 190950Z 17009KT 27/16 A2995 RMK A01 T02650157  RH  052%=      5-min Rain = 0
KTA1 190951Z 16010KT 26/16 A2995 RMK A01 T02640157  RH  052%=      5-min Rain = 0
KTA1 190952Z 17010KT 26/16 A2995 RMK A01 T02640158  RH  052%=      5-min Rain = 0
KTA1 190953Z 16009KT 26/16 A2995 RMK A01 T02640158  RH  052%=      5-min Rain = 0
KTA1 190954Z 16011KT 26/16 A2995 RMK A01 T02640158  RH  052%=      5-min Rain = 0
KTA1 190955Z 16011KT 26/16 A2995 RMK A01 T02630158  RH  052%=      5-min Rain = 0
KTA1 190956Z 16012KT 26/16 A2995 RMK A01 T02630158  RH  052%=      5-min Rain = 0
KTA1 190957Z 16010KT 26/16 A2995 RMK A01 T02620158  RH  053%=      5-min Rain = 0
KTA1 190958Z 16010KT 26/16 A2995 RMK A01 T02620158  RH  053%=      5-min Rain = 0
KTA1 190959Z 16012KT 26/16 A2995 RMK A01 T02620158  RH  053%=      5-min Rain = 0
KTA1 191000Z 16011KT 26/16 A2995 RMK A01 T02610157  RH  053%=      5-min Rain = 0
KTA1 191001Z 16011KT 26/16 A2995 RMK A01 T02610157  RH  053%=      5-min Rain = 0
KTA1 191002Z 16010KT 26/16 A2995 RMK A01 T02600157  RH  053%=      5-min Rain = 0
KTA1 191003Z 16011KT 26/16 A2995 RMK A01 T02600157  RH  053%=      5-min Rain = 0
KTA1 191004Z 16011KT 26/16 A2995 RMK A01 T02600158  RH  053%=      5-min Rain = 0
KTA1 191005Z 16011KT 26/16 A2995 RMK A01 T02600157  RH  053%=      5-min Rain = 0
KTA1 191006Z 16010KT 26/16 A2995 RMK A01 T02590157  RH  053%=      5-min Rain = 0
KTA1 191007Z 15009KT 26/16 A2995 RMK A01 T02600158  RH  054%=      5-min Rain = 0
KTA1 191008Z 16010KT 26/16 A2995 RMK A01 T02590158  RH  054%=      5-min Rain = 0
KTA1 191009Z 16011KT 26/16 A2995 RMK A01 T02590158  RH  054%=      5-min Rain = 0
KTA1 191010Z 16010KT 26/16 A2995 RMK A01 T02590158  RH  054%=      5-min Rain = 0
KTA1 191011Z 16011KT 26/16 A2995 RMK A01 T02590159  RH  054%=      5-min Rain = 0
KTA1 191012Z 16009KT 26/16 A2995 RMK A01 T02590159  RH  054%=      5-min Rain = 0
KTA1 191013Z 16010KT 26/16 A2995 RMK A01 T02590159  RH  054%=      5-min Rain = 0
KTA1 191014Z 16010KT 26/16 A2995 RMK A01 T02580159  RH  054%=      5-min Rain = 0
KTA1 191015Z 16010KT 26/16 A2995 RMK A01 T02590159  RH  054%=      5-min Rain = 0
KTA1 191016Z 17012KT 26/16 A2995 RMK A01 T02580160  RH  054%=      5-min Rain = 0
KTA1 191017Z 16010KT 26/16 A2995 RMK A01 T02590160  RH  054%=      5-min Rain = 0
KTA1 191018Z 16009KT 26/16 A2995 RMK A01 T02600160  RH  054%=      5-min Rain = 0
KTA1 191019Z 16011G17KT 26/16 A2995 RMK A01 T02600160  RH  054%=      5-min Rain = 0
KTA1 191020Z 16012KT 26/16 A2995 RMK A01 T02600161  RH  054%=      5-min Rain = 0
KTA1 191021Z 17010KT 26/16 A2995 RMK A01 T02600161  RH  054%=      5-min Rain = 0
KTA1 191022Z 17011KT 26/16 A2995 RMK A01 T02600161  RH  054%=      5-min Rain = 0
KTA1 191023Z 16012KT 26/16 A2995 RMK A01 T02600162  RH  054%=      5-min Rain = 0
KTA1 191024Z 17012G17KT 26/16 A2995 RMK A01 T02610162  RH  054%=      5-min Rain = 0
KTA1 191025Z 17011KT 26/16 A2995 RMK A01 T02610162  RH  055%=      5-min Rain = 0
KTA1 191026Z 16011G16KT 26/16 A2995 RMK A01 T02610162  RH  055%=      5-min Rain = 0
KTA1 191027Z 16012KT 26/16 A2995 RMK A01 T02610163  RH  055%=      5-min Rain = 0
KTA1 191028Z 17012KT 26/16 A2995 RMK A01 T02610163  RH  055%=      5-min Rain = 0
KTA1 191029Z 17012KT 26/16 A2995 RMK A01 T02610163  RH  055%=      5-min Rain = 0
KTA1 191030Z 16009KT 26/16 A2995 RMK A01 T02610164  RH  055%=      5-min Rain = 0
KTA1 191031Z 16010KT 26/16 A2995 RMK A01 T02610164  RH  055%=      5-min Rain = 0
KTA1 191032Z 16012G17KT 26/16 A2995 RMK A01 T02600164  RH  055%=      5-min Rain = 0
KTA1 191033Z 16012KT 26/16 A2995 RMK A01 T02600164  RH  055%=      5-min Rain = 0
KTA1 191034Z 16011KT 26/16 A2995 RMK A01 T02600164  RH  055%=      5-min Rain = 0
KTA1 191035Z 17012KT 26/16 A2995 RMK A01 T02600164  RH  055%=      5-min Rain = 0
KTA1 191036Z 16011G16KT 26/17 A2995 RMK A01 T02600165  RH  055%=      5-min Rain = 0
KTA1 191037Z 16012KT 26/17 A2995 RMK A01 T02600165  RH  056%=      5-min Rain = 0
KTA1 191038Z 16012KT 26/16 A2995 RMK A01 T02590164  RH  056%=      5-min Rain = 0
KTA1 191039Z 16012KT 26/17 A2995 RMK A01 T02590165  RH  056%=      5-min Rain = 0
KTA1 191040Z 17013KT 26/17 A2995 RMK A01 T02590165  RH  056%=      5-min Rain = 0
KTA1 191041Z 17010KT 26/17 A2995 RMK A01 T02590165  RH  056%=      5-min Rain = 0
KTA1 191042Z 17013KT 26/17 A2995 RMK A01 T02590165  RH  056%=      5-min Rain = 0
KTA1 191043Z 16013KT 26/17 A2995 RMK A01 T02590165  RH  056%=      5-min Rain = 0
KTA1 191044Z 17011G16KT 26/17 A2995 RMK A01 T02590165  RH  056%=      5-min Rain = 0
KTA1 191045Z 17011KT 26/17 A2995 RMK A01 T02590165  RH  056%=      5-min Rain = 0
KTA1 191046Z 16010KT 26/17 A2995 RMK A01 T02590165  RH  056%=      5-min Rain = 0
KTA1 191047Z 16011KT 26/17 A2995 RMK A01 T02590165  RH  056%=      5-min Rain = 0
KTA1 191048Z 16011KT 26/17 A2995 RMK A01 T02580166  RH  057%=      5-min Rain = 0
KTA1 191049Z 16012KT 26/17 A2995 RMK A01 T02580166  RH  057%=      5-min Rain = 0
KTA1 191050Z 16011G16KT 26/17 A2995 RMK A01 T02580166  RH  057%=      5-min Rain = 0
KTA1 191051Z 17012KT 26/17 A2995 RMK A01 T02590166  RH  057%=      5-min Rain = 0
KTA1 191052Z 17011KT 26/17 A2995 RMK A01 T02580166  RH  057%=      5-min Rain = 0
KTA1 191053Z 16011KT 26/17 A2995 RMK A01 T02580166  RH  057%=      5-min Rain = 0
KTA1 191054Z 17012KT 26/17 A2995 RMK A01 T02580166  RH  057%=      5-min Rain = 0
KTA1 191055Z 17010KT 26/17 A2996 RMK A01 T02590167  RH  057%=      5-min Rain = 0
KTA1 191056Z 17012KT 26/17 A2995 RMK A01 T02580167  RH  057%=      5-min Rain = 0
KTA1 191057Z 17012KT 26/17 A2995 RMK A01 T02580167  RH  057%=      5-min Rain = 0
KTA1 191058Z 17012KT 26/17 A2995 RMK A01 T02580166  RH  057%=      5-min Rain = 0
KTA1 191059Z 16012KT 26/17 A2995 RMK A01 T02580166  RH  057%=      5-min Rain = 0
KTA1 191100Z 17011KT 26/17 A2995 RMK A01 T02580167  RH  057%=      5-min Rain = 0
KTA1 191101Z 16011G16KT 26/17 A2995 RMK A01 T02580167  RH  057%=      5-min Rain = 0
KTA1 191102Z 16012KT 26/17 A2995 RMK A01 T02570166  RH  057%=      5-min Rain = 0
KTA1 191103Z 17012KT 26/17 A2995 RMK A01 T02570167  RH  057%=      5-min Rain = 0
KTA1 191104Z 17011KT 26/17 A2995 RMK A01 T02570167  RH  057%=      5-min Rain = 0
KTA1 191105Z 16011KT 26/17 A2995 RMK A01 T02570167  RH  057%=      5-min Rain = 0
KTA1 191106Z 16012KT 26/17 A2996 RMK A01 T02570167  RH  057%=      5-min Rain = 0
KTA1 191107Z 16010KT 26/17 A2996 RMK A01 T02570167  RH  058%=      5-min Rain = 0
KTA1 191108Z 17011G19KT 26/17 A2996 RMK A01 T02560167  RH  058%=      5-min Rain = 0
KTA1 191109Z 16013KT 26/17 A2996 RMK A01 T02560167  RH  058%=      5-min Rain = 0
KTA1 191110Z 17012KT 26/17 A2996 RMK A01 T02560167  RH  058%=      5-min Rain = 0
KTA1 191111Z 16012KT 26/17 A2996 RMK A01 T02560167  RH  058%=      5-min Rain = 0
KTA1 191112Z 17013KT 26/17 A2996 RMK A01 T02570167  RH  058%=      5-min Rain = 0
KTA1 191113Z 16011KT 26/17 A2996 RMK A01 T02560167  RH  058%=      5-min Rain = 0
KTA1 191114Z 17011KT 26/17 A2996 RMK A01 T02560167  RH  058%=      5-min Rain = 0
KTA1 191115Z 17011KT 26/17 A2996 RMK A01 T02560167  RH  058%=      5-min Rain = 0
KTA1 191116Z 17010KT 26/17 A2996 RMK A01 T02560168  RH  058%=      5-min Rain = 0
KTA1 191117Z 16012KT 26/17 A2996 RMK A01 T02550167  RH  058%=      5-min Rain = 0
KTA1 191118Z 17009KT 26/17 A2996 RMK A01 T02560167  RH  058%=      5-min Rain = 0
KTA1 191119Z 17013KT 26/17 A2996 RMK A01 T02550167  RH  058%=      5-min Rain = 0
KTA1 191120Z 17011KT 26/17 A2996 RMK A01 T02560168  RH  058%=      5-min Rain = 0
KTA1 191121Z 17009KT 26/17 A2996 RMK A01 T02550167  RH  058%=      5-min Rain = 0
KTA1 191122Z 17013KT 26/17 A2996 RMK A01 T02550168  RH  058%=      5-min Rain = 0
KTA1 191123Z 16012G17KT 26/17 A2996 RMK A01 T02550167  RH  058%=      5-min Rain = 0
KTA1 191124Z 17012G18KT 26/17 A2996 RMK A01 T02550168  RH  058%=      5-min Rain = 0
KTA1 191125Z 17013KT 26/17 A2996 RMK A01 T02550167  RH  058%=      5-min Rain = 0
KTA1 191126Z 16013KT 26/17 A2996 RMK A01 T02550167  RH  058%=      5-min Rain = 0
KTA1 191127Z 16012KT 26/17 A2996 RMK A01 T02550168  RH  058%=      5-min Rain = 0
KTA1 191128Z 16012KT 26/17 A2996 RMK A01 T02550168  RH  059%=      5-min Rain = 0
KTA1 191129Z 17012G17KT 26/17 A2996 RMK A01 T02550168  RH  059%=      5-min Rain = 0
KTA1 191130Z 17011KT 25/17 A2996 RMK A01 T02540167  RH  059%=      5-min Rain = 0
KTA1 191131Z 16011KT 25/17 A2996 RMK A01 T02540168  RH  059%=      5-min Rain = 0
KTA1 191132Z 17012KT 25/17 A2996 RMK A01 T02540168  RH  059%=      5-min Rain = 0
KTA1 191133Z 17013KT 25/17 A2996 RMK A01 T02540168  RH  059%=      5-min Rain = 0
KTA1 191134Z 17013KT 25/17 A2996 RMK A01 T02540168  RH  059%=      5-min Rain = 0
KTA1 191135Z 17014KT 25/17 A2996 RMK A01 T02540168  RH  059%=      5-min Rain = 0
KTA1 191136Z 17012KT 25/17 A2996 RMK A01 T02540168  RH  059%=      5-min Rain = 0
KTA1 191137Z 17013KT 26/17 A2996 RMK A01 T02550168  RH  059%=      5-min Rain = 0
KTA1 191138Z 17013KT 26/17 A2996 RMK A01 T02550168  RH  059%=      5-min Rain = 0
KTA1 191139Z 17011KT 25/17 A2996 RMK A01 T02540168  RH  059%=      5-min Rain = 0
KTA1 191140Z 17012KT 25/17 A2996 RMK A01 T02540168  RH  059%=      5-min Rain = 0
KTA1 191141Z 17012KT 25/17 A2996 RMK A01 T02540168  RH  059%=      5-min Rain = 0
KTA1 191142Z 17010KT 25/17 A2996 RMK A01 T02530168  RH  059%=      5-min Rain = 0
KTA1 191143Z 17012KT 25/17 A2996 RMK A01 T02530168  RH  059%=      5-min Rain = 0
KTA1 191144Z 17012KT 25/17 A2996 RMK A01 T02530168  RH  059%=      5-min Rain = 0
KTA1 191145Z 17012KT 25/17 A2996 RMK A01 T02530168  RH  059%=      5-min Rain = 0
KTA1 191146Z 17014KT 25/17 A2996 RMK A01 T02530168  RH  059%=      5-min Rain = 0
KTA1 191147Z 17014KT 25/17 A2996 RMK A01 T02530168  RH  059%=      5-min Rain = 0
KTA1 191148Z 17010G15KT 25/17 A2996 RMK A01 T02530168  RH  059%=      5-min Rain = 0
KTA1 191149Z 17012KT 25/17 A2996 RMK A01 T02530168  RH  059%=      5-min Rain = 0
KTA1 191150Z 17013KT 25/17 A2996 RMK A01 T02530168  RH  059%=      5-min Rain = 0
KTA1 191151Z 17012KT 25/17 A2996 RMK A01 T02530168  RH  059%=      5-min Rain = 0
KTA1 191152Z 17013KT 25/17 A2996 RMK A01 T02530168  RH  059%=      5-min Rain = 0
KTA1 191153Z 17014KT 25/17 A2996 RMK A01 T02530168  RH  059%=      5-min Rain = 0
KTA1 191154Z 17011KT 25/17 A2996 RMK A01 T02530168  RH  059%=      5-min Rain = 0
KTA1 191155Z 17010KT 25/17 A2996 RMK A01 T02520168  RH  059%=      5-min Rain = 0
KTA1 191156Z 17011KT 25/17 A2996 RMK A01 T02520168  RH  060%=      5-min Rain = 0
KTA1 191157Z 17013KT 25/17 A2996 RMK A01 T02520168  RH  060%=      5-min Rain = 0
KTA1 191158Z 17011KT 25/17 A2996 RMK A01 T02520168  RH  060%=      5-min Rain = 0
KTA1 191159Z 17010KT 25/17 A2996 RMK A01 T02520168  RH  060%=      5-min Rain = 0
KTA1 191200Z 17011KT 25/17 A2997 RMK A01 T02520168  RH  060%=      5-min Rain = 0
KTA1 191201Z 17012KT 25/17 A2997 RMK A01 T02510168  RH  060%=      5-min Rain = 0
KTA1 191202Z 17013KT 25/17 A2997 RMK A01 T02520168  RH  060%=      5-min Rain = 0
KTA1 191203Z 17011KT 25/17 A2997 RMK A01 T02510168  RH  060%=      5-min Rain = 0
KTA1 191204Z 17010G15KT 25/17 A2997 RMK A01 T02510168  RH  060%=      5-min Rain = 0
KTA1 191205Z 17011KT 25/17 A2997 RMK A01 T02510168  RH  060%=      5-min Rain = 0
KTA1 191206Z 17012KT 25/17 A2997 RMK A01 T02510168  RH  060%=      5-min Rain = 0
KTA1 191207Z 17011KT 25/17 A2997 RMK A01 T02510168  RH  060%=      5-min Rain = 0
KTA1 191208Z 17011KT 25/17 A2997 RMK A01 T02510168  RH  060%=      5-min Rain = 0
KTA1 191209Z 17011KT 25/17 A2997 RMK A01 T02510169  RH  060%=      5-min Rain = 0
KTA1 191210Z 17012KT 25/17 A2997 RMK A01 T02500168  RH  060%=      5-min Rain = 0
KTA1 191211Z 17010KT 25/17 A2997 RMK A01 T02510168  RH  060%=      5-min Rain = 0
KTA1 191212Z 17013KT 25/17 A2997 RMK A01 T02500168  RH  060%=      5-min Rain = 0
KTA1 191213Z 17013KT 25/17 A2997 RMK A01 T02510168  RH  060%=      5-min Rain = 0
KTA1 191214Z 17011KT 25/17 A2997 RMK A01 T02510168  RH  060%=      5-min Rain = 0
KTA1 191215Z 17011G16KT 25/17 A2997 RMK A01 T02510168  RH  060%=      5-min Rain = 0
KTA1 191216Z 17013KT 25/17 A2997 RMK A01 T02510168  RH  060%=      5-min Rain = 0
KTA1 191217Z 17012KT 25/17 A2997 RMK A01 T02510168  RH  060%=      5-min Rain = 0
KTA1 191218Z 17012KT 25/17 A2997 RMK A01 T02510168  RH  060%=      5-min Rain = 0
KTA1 191219Z 17010KT 25/17 A2997 RMK A01 T02510168  RH  060%=      5-min Rain = 0
KTA1 191220Z 17011KT 25/17 A2997 RMK A01 T02510169  RH  060%=      5-min Rain = 0
KTA1 191221Z 17011KT 25/17 A2997 RMK A01 T02510169  RH  060%=      5-min Rain = 0
KTA1 191222Z 17009KT 25/17 A2997 RMK A01 T02500169  RH  060%=      5-min Rain = 0
KTA1 191223Z 17010KT 25/17 A2997 RMK A01 T02510169  RH  060%=      5-min Rain = 0
KTA1 191224Z 17011KT 25/17 A2997 RMK A01 T02510169  RH  060%=      5-min Rain = 0
KTA1 191225Z 17011KT 25/17 A2997 RMK A01 T02510169  RH  060%=      5-min Rain = 0
KTA1 191226Z 17010KT 25/17 A2997 RMK A01 T02500169  RH  060%=      5-min Rain = 0
KTA1 191227Z 18013KT 25/17 A2997 RMK A01 T02510169  RH  060%=      5-min Rain = 0
KTA1 191228Z 17011KT 25/17 A2997 RMK A01 T02510168  RH  060%=      5-min Rain = 0
KTA1 191229Z 17010KT 25/17 A2997 RMK A01 T02510169  RH  060%=      5-min Rain = 0
KTA1 191230Z 17011KT 25/17 A2997 RMK A01 T02510169  RH  060%=      5-min Rain = 0
KTA1 191231Z 17011KT 25/17 A2997 RMK A01 T02510169  RH  060%=      5-min Rain = 0
KTA1 191232Z 16010KT 25/17 A2997 RMK A01 T02500169  RH  060%=      5-min Rain = 0
KTA1 191233Z 17009KT 25/17 A2997 RMK A01 T02510169  RH  060%=      5-min Rain = 0
KTA1 191234Z 16009KT 25/17 A2997 RMK A01 T02510169  RH  061%=      5-min Rain = 0
KTA1 191235Z 16012KT 25/17 A2997 RMK A01 T02510169  RH  060%=      5-min Rain = 0
KTA1 191236Z 16009KT 25/17 A2997 RMK A01 T02510169  RH  060%=      5-min Rain = 0
KTA1 191237Z 17010KT 25/17 A2997 RMK A01 T02510169  RH  060%=      5-min Rain = 0
KTA1 191238Z 17009KT 25/17 A2997 RMK A01 T02510169  RH  060%=      5-min Rain = 0
KTA1 191239Z 17010KT 25/17 A2997 RMK A01 T02510170  RH  060%=      5-min Rain = 0
KTA1 191240Z 17011KT 25/17 A2997 RMK A01 T02510169  RH  060%=      5-min Rain = 0
KTA1 191241Z 17009KT 25/17 A2997 RMK A01 T02520169  RH  060%=      5-min Rain = 0
KTA1 191242Z 17012KT 25/17 A2997 RMK A01 T02510169  RH  060%=      5-min Rain = 0
KTA1 191243Z 17011KT 25/17 A2997 RMK A01 T02510169  RH  060%=      5-min Rain = 0
KTA1 191244Z 17012KT 25/17 A2997 RMK A01 T02520169  RH  060%=      5-min Rain = 0
KTA1 191245Z 16010KT 25/17 A2997 RMK A01 T02520169  RH  060%=      5-min Rain = 0
KTA1 191246Z 16009KT 25/17 A2997 RMK A01 T02520170  RH  060%=      5-min Rain = 0
KTA1 191247Z 17010KT 25/17 A2997 RMK A01 T02520170  RH  060%=      5-min Rain = 0
KTA1 191248Z 17010KT 25/17 A2997 RMK A01 T02520169  RH  060%=      5-min Rain = 0
KTA1 191249Z 17009KT 25/17 A2997 RMK A01 T02520170  RH  060%=      5-min Rain = 0
KTA1 191250Z 16011KT 25/17 A2997 RMK A01 T02530170  RH  060%=      5-min Rain = 0
KTA1 191251Z 17009KT 25/17 A2997 RMK A01 T02520170  RH  060%=      5-min Rain = 0
KTA1 191252Z 16009KT 25/17 A2997 RMK A01 T02520170  RH  060%=      5-min Rain = 0
KTA1 191253Z 16011KT 25/17 A2997 RMK A01 T02530170  RH  060%=      5-min Rain = 0
KTA1 191254Z 17011KT 25/17 A2997 RMK A01 T02530170  RH  060%=      5-min Rain = 0
KTA1 191255Z 17010KT 25/17 A2997 RMK A01 T02530170  RH  060%=      5-min Rain = 0
KTA1 191256Z 17012KT 25/17 A2997 RMK A01 T02530170  RH  060%=      5-min Rain = 0
KTA1 191257Z 17011KT 25/17 A2997 RMK A01 T02530170  RH  060%=      5-min Rain = 0
KTA1 191258Z 17012KT 25/17 A2997 RMK A01 T02530170  RH  060%=      5-min Rain = 0
KTA1 191259Z 17014KT 25/17 A2997 RMK A01 T02540170  RH  060%=      5-min Rain = 0
KTA1 191300Z 16011KT 25/17 A2997 RMK A01 T02540170  RH  060%=      5-min Rain = 0
KTA1 191301Z 17012KT 25/17 A2997 RMK A01 T02540170  RH  060%=      5-min Rain = 0
KTA1 191302Z 17012KT 25/17 A2997 RMK A01 T02540170  RH  060%=      5-min Rain = 0
KTA1 191303Z 17011KT 25/17 A2997 RMK A01 T02540170  RH  060%=      5-min Rain = 0
KTA1 191304Z 17013KT 25/17 A2997 RMK A01 T02540170  RH  060%=      5-min Rain = 0
KTA1 191305Z 17011KT 25/17 A2997 RMK A01 T02540170  RH  060%=      5-min Rain = 0
KTA1 191306Z 17011KT 26/17 A2997 RMK A01 T02550171  RH  060%=      5-min Rain = 0
KTA1 191307Z 16012KT 26/17 A2997 RMK A01 T02550171  RH  059%=      5-min Rain = 0
KTA1 191308Z 17012KT 26/17 A2997 RMK A01 T02560171  RH  059%=      5-min Rain = 0
KTA1 191309Z 17011KT 26/17 A2997 RMK A01 T02560170  RH  059%=      5-min Rain = 0
KTA1 191310Z 17010G17KT 26/17 A2997 RMK A01 T02560171  RH  059%=      5-min Rain = 0
KTA1 191311Z 16014KT 26/17 A2997 RMK A01 T02560171  RH  059%=      5-min Rain = 0
KTA1 191312Z 16012KT 26/17 A2997 RMK A01 T02560171  RH  059%=      5-min Rain = 0
KTA1 191313Z 16015KT 26/17 A2997 RMK A01 T02560171  RH  059%=      5-min Rain = 0
KTA1 191314Z 17015KT 26/17 A2997 RMK A01 T02560171  RH  059%=      5-min Rain = 0
KTA1 191315Z 17013KT 26/17 A2997 RMK A01 T02560170  RH  059%=      5-min Rain = 0
KTA1 191316Z 17011KT 26/17 A2997 RMK A01 T02560171  RH  059%=      5-min Rain = 0
KTA1 191317Z 16013KT 26/17 A2997 RMK A01 T02570171  RH  059%=      5-min Rain = 0
KTA1 191318Z 16011KT 26/17 A2997 RMK A01 T02570171  RH  059%=      5-min Rain = 0
KTA1 191319Z 15013KT 26/17 A2997 RMK A01 T02570172  RH  059%=      5-min Rain = 0
KTA1 191320Z 16014KT 26/17 A2997 RMK A01 T02570171  RH  059%=      5-min Rain = 0
KTA1 191321Z 16013KT 26/17 A2997 RMK A01 T02570171  RH  059%=      5-min Rain = 0
KTA1 191322Z 16013KT 26/17 A2997 RMK A01 T02580171  RH  059%=      5-min Rain = 0
KTA1 191323Z 16015KT 26/17 A2997 RMK A01 T02580171  RH  059%=      5-min Rain = 0
KTA1 191324Z 16013KT 26/17 A2997 RMK A01 T02580171  RH  059%=      5-min Rain = 0
KTA1 191325Z 16013KT 26/17 A2997 RMK A01 T02580171  RH  059%=      5-min Rain = 0
KTA1 191326Z 16011KT 26/17 A2997 RMK A01 T02580172  RH  059%=      5-min Rain = 0
KTA1 191327Z 16014KT 26/17 A2997 RMK A01 T02580172  RH  059%=      5-min Rain = 0
KTA1 191328Z 17013KT 26/17 A2997 RMK A01 T02580171  RH  059%=      5-min Rain = 0
KTA1 191329Z 16015KT 26/17 A2997 RMK A01 T02590172  RH  059%=      5-min Rain = 0
KTA1 191330Z 16015KT 26/17 A2997 RMK A01 T02590171  RH  058%=      5-min Rain = 0
KTA1 191331Z 16015KT 26/17 A2997 RMK A01 T02590171  RH  058%=      5-min Rain = 0
KTA1 191332Z 16015KT 26/17 A2997 RMK A01 T02590171  RH  058%=      5-min Rain = 0
KTA1 191333Z 16015KT 26/17 A2997 RMK A01 T02590171  RH  058%=      5-min Rain = 0
KTA1 191334Z 16016KT 26/17 A2997 RMK A01 T02590171  RH  058%=      5-min Rain = 0
KTA1 191335Z 16016G21KT 26/17 A2997 RMK A01 T02590171  RH  058%=      5-min Rain = 0
KTA1 191336Z 17016KT 26/17 A2997 RMK A01 T02590171  RH  058%=      5-min Rain = 0
KTA1 191337Z 17013KT 26/17 A2997 RMK A01 T02600171  RH  058%=      5-min Rain = 0
KTA1 191338Z 16015KT 26/17 A2997 RMK A01 T02610172  RH  058%=      5-min Rain = 0
KTA1 191339Z 17013KT 26/17 A2997 RMK A01 T02610172  RH  058%=      5-min Rain = 0
KTA1 191340Z 17015KT 26/17 A2997 RMK A01 T02610171  RH  058%=      5-min Rain = 0
KTA1 191341Z 17017KT 26/17 A2997 RMK A01 T02620171  RH  058%=      5-min Rain = 0
KTA1 191342Z 17015KT 26/17 A2997 RMK A01 T02620171  RH  057%=      5-min Rain = 0
KTA1 191343Z 17014KT 26/17 A2997 RMK A01 T02610171  RH  058%=      5-min Rain = 0
KTA1 191344Z 17013KT 26/17 A2998 RMK A01 T02610172  RH  058%=      5-min Rain = 0
KTA1 191345Z 17012G17KT 26/17 A2998 RMK A01 T02620172  RH  058%=      5-min Rain = 0
KTA1 191346Z 16012G17KT 26/17 A2998 RMK A01 T02630173  RH  058%=      5-min Rain = 0
KTA1 191347Z 17015KT 26/17 A2998 RMK A01 T02640173  RH  057%=      5-min Rain = 0
KTA1 191348Z 17015KT 26/17 A2998 RMK A01 T02640172  RH  057%=      5-min Rain = 0
KTA1 191349Z 16015KT 26/17 A2998 RMK A01 T02630173  RH  058%=      5-min Rain = 0
KTA1 191350Z 17016KT 26/17 A2998 RMK A01 T02630172  RH  057%=      5-min Rain = 0
KTA1 191351Z 16015G20KT 26/17 A2998 RMK A01 T02630172  RH  057%=      5-min Rain = 0
KTA1 191352Z 16016KT 26/17 A2998 RMK A01 T02640172  RH  057%=      5-min Rain = 0
KTA1 191353Z 16016KT 26/17 A2998 RMK A01 T02630172  RH  057%=      5-min Rain = 0
KTA1 191354Z 18016KT 26/17 A2998 RMK A01 T02630172  RH  057%=      5-min Rain = 0
KTA1 191355Z 17016KT 26/17 A2998 RMK A01 T02630172  RH  057%=      5-min Rain = 0
KTA1 191356Z 17013KT 26/17 A2998 RMK A01 T02640172  RH  057%=      5-min Rain = 0
KTA1 191357Z 17015G20KT 26/17 A2998 RMK A01 T02640172  RH  057%=      5-min Rain = 0
KTA1 191358Z 16015KT 27/17 A2998 RMK A01 T02650172  RH  057%=      5-min Rain = 0
KTA1 191359Z 17016G21KT 27/17 A2998 RMK A01 T02650173  RH  057%=      5-min Rain = 0
KTA1 191400Z 17015G20KT 27/17 A2998 RMK A01 T02650172  RH  057%=      5-min Rain = 0
KTA1 191401Z 18015KT 27/17 A2998 RMK A01 T02650172  RH  057%=      5-min Rain = 0
KTA1 191402Z 17014KT 27/17 A2998 RMK A01 T02650172  RH  057%=      5-min Rain = 0
KTA1 191403Z 17016KT 27/17 A2998 RMK A01 T02650172  RH  057%=      5-min Rain = 0
KTA1 191404Z 17015KT 27/17 A2998 RMK A01 T02650172  RH  057%=      5-min Rain = 0
KTA1 191405Z 16015KT 27/17 A2998 RMK A01 T02650172  RH  057%=      5-min Rain = 0
KTA1 191406Z 17015KT 27/17 A2998 RMK A01 T02660173  RH  057%=      5-min Rain = 0
KTA1 191407Z 17014KT 27/17 A2998 RMK A01 T02660173  RH  057%=      5-min Rain = 0
KTA1 191408Z 17013KT 27/17 A2998 RMK A01 T02660173  RH  057%=      5-min Rain = 0
KTA1 191409Z 17014KT 27/17 A2998 RMK A01 T02680173  RH  056%=      5-min Rain = 0
KTA1 191410Z 17015KT 27/17 A2998 RMK A01 T02680173  RH  056%=      5-min Rain = 0
KTA1 191411Z 17014KT 27/17 A2998 RMK A01 T02680173  RH  056%=      5-min Rain = 0
KTA1 191412Z 17011KT 27/17 A2998 RMK A01 T02680173  RH  056%=      5-min Rain = 0
KTA1 191413Z 16012G17KT 27/17 A2998 RMK A01 T02700174  RH  056%=      5-min Rain = 0
KTA1 191414Z 17013G18KT 27/17 A2998 RMK A01 T02710174  RH  055%=      5-min Rain = 0
KTA1 191415Z 18011KT 27/18 A2998 RMK A01 T02710175  RH  055%=      5-min Rain = 0
KTA1 191416Z 18011KT 27/17 A2998 RMK A01 T02720174  RH  055%=      5-min Rain = 0
KTA1 191417Z 17012KT 27/18 A2998 RMK A01 T02740175  RH  055%=      5-min Rain = 0
KTA1 191418Z 17012KT 28/18 A2998 RMK A01 T02750175  RH  054%=      5-min Rain = 0
KTA1 191419Z 18014KT 28/18 A2998 RMK A01 T02750175  RH  054%=      5-min Rain = 0
KTA1 191420Z 17014KT 27/17 A2998 RMK A01 T02740174  RH  054%=      5-min Rain = 0
KTA1 191421Z 18013KT 27/17 A2998 RMK A01 T02730174  RH  055%=      5-min Rain = 0
KTA1 191422Z 18011KT 27/18 A2998 RMK A01 T02730175  RH  055%=      5-min Rain = 0
KTA1 191423Z 18011KT 27/18 A2998 RMK A01 T02740175  RH  055%=      5-min Rain = 0
KTA1 191424Z 17016KT 28/17 A2998 RMK A01 T02750174  RH  054%=      5-min Rain = 0
KTA1 191425Z 17014KT 28/17 A2998 RMK A01 T02750174  RH  054%=      5-min Rain = 0
KTA1 191426Z 18014KT 28/17 A2998 RMK A01 T02760174  RH  054%=      5-min Rain = 0
KTA1 191427Z 17012KT 28/17 A2998 RMK A01 T02760174  RH  054%=      5-min Rain = 0
KTA1 191428Z 18013KT 28/18 A2998 RMK A01 T02770175  RH  054%=      5-min Rain = 0
KTA1 191429Z 17015KT 28/18 A2998 RMK A01 T02780175  RH  053%=      5-min Rain = 0
KTA1 191430Z 18013KT 28/18 A2998 RMK A01 T02780175  RH  053%=      5-min Rain = 0
KTA1 191431Z 18012G17KT 28/18 A2998 RMK A01 T02780176  RH  054%=      5-min Rain = 0
KTA1 191432Z 17013KT 28/17 A2998 RMK A01 T02790174  RH  053%=      5-min Rain = 0
KTA1 191433Z 17015KT 28/17 A2998 RMK A01 T02800174  RH  053%=      5-min Rain = 0
KTA1 191434Z 18014KT 28/17 A2998 RMK A01 T02800174  RH  053%=      5-min Rain = 0
KTA1 191435Z 17017KT 28/17 A2998 RMK A01 T02790174  RH  053%=      5-min Rain = 0
KTA1 191436Z 17013G18KT 28/17 A2998 RMK A01 T02780174  RH  053%=      5-min Rain = 0
KTA1 191437Z 17013G18KT 28/18 A2998 RMK A01 T02780175  RH  053%=      5-min Rain = 0
KTA1 191438Z 17015KT 28/17 A2998 RMK A01 T02800174  RH  053%=      5-min Rain = 0
KTA1 191439Z 18013KT 28/18 A2998 RMK A01 T02790175  RH  053%=      5-min Rain = 0
KTA1 191440Z 18017KT 28/17 A2998 RMK A01 T02790174  RH  053%=      5-min Rain = 0
KTA1 191441Z 18015KT 28/17 A2998 RMK A01 T02780173  RH  053%=      5-min Rain = 0
KTA1 191442Z 18015KT 28/17 A2998 RMK A01 T02780174  RH  053%=      5-min Rain = 0
KTA1 191443Z 18015G20KT 28/17 A2998 RMK A01 T02790174  RH  053%=      5-min Rain = 0
KTA1 191444Z 17014G19KT 28/17 A2998 RMK A01 T02800173  RH  052%=      5-min Rain = 0
KTA1 191445Z 18014KT 28/17 A2998 RMK A01 T02800174  RH  052%=      5-min Rain = 0
KTA1 191446Z 19014KT 28/17 A2998 RMK A01 T02800174  RH  053%=      5-min Rain = 0
KTA1 191447Z 18012KT 28/18 A2998 RMK A01 T02800175  RH  053%=      5-min Rain = 0
KTA1 191448Z 18013KT 28/18 A2998 RMK A01 T02820176  RH  053%=      5-min Rain = 0
KTA1 191449Z 18015KT 28/18 A2998 RMK A01 T02840175  RH  052%=      5-min Rain = 0
KTA1 191450Z 19015KT 28/18 A2998 RMK A01 T02840175  RH  052%=      5-min Rain = 0
KTA1 191451Z 18013KT 28/18 A2998 RMK A01 T02830175  RH  052%=      5-min Rain = 0
KTA1 191452Z 19012G17KT 28/18 A2998 RMK A01 T02830176  RH  052%=      5-min Rain = 0
KTA1 191453Z 19014KT 29/18 A2998 RMK A01 T02850175  RH  051%=      5-min Rain = 0
KTA1 191454Z 17013KT 29/18 A2998 RMK A01 T02860176  RH  051%=      5-min Rain = 0
KTA1 191455Z 16014KT 29/18 A2998 RMK A01 T02860175  RH  051%=      5-min Rain = 0
KTA1 191456Z 17015KT 29/18 A2998 RMK A01 T02860176  RH  051%=      5-min Rain = 0
KTA1 191457Z 16014KT 29/18 A2998 RMK A01 T02860175  RH  051%=      5-min Rain = 0
KTA1 191458Z 18013G18KT 29/18 A2998 RMK A01 T02870176  RH  051%=      5-min Rain = 0
KTA1 191459Z 18013G18KT 29/18 A2998 RMK A01 T02870175  RH  051%=      5-min Rain = 0
KTA1 191500Z 17012G17KT 29/18 A2998 RMK A01 T02870176  RH  051%=      5-min Rain = 0
KTA1 191501Z 17013KT 29/18 A2998 RMK A01 T02880176  RH  051%=      5-min Rain = 0
KTA1 191502Z 17013KT 29/18 A2998 RMK A01 T02880176  RH  051%=      5-min Rain = 0
KTA1 191503Z 18014KT 29/18 A2998 RMK A01 T02890176  RH  051%=      5-min Rain = 0
KTA1 191504Z 17010KT 29/18 A2998 RMK A01 T02880177  RH  051%=      5-min Rain = 0
KTA1 191505Z 18013G20KT 29/18 A2998 RMK A01 T02900178  RH  051%=      5-min Rain = 0
KTA1 191506Z 17015KT 29/18 A2998 RMK A01 T02920175  RH  049%=      5-min Rain = 0
KTA1 191507Z 17015KT 29/18 A2998 RMK A01 T02910175  RH  049%=      5-min Rain = 0
KTA1 191508Z 17014KT 29/18 A2998 RMK A01 T02900175  RH  050%=      5-min Rain = 0
KTA1 191509Z 17013KT 29/18 A2998 RMK A01 T02890176  RH  050%=      5-min Rain = 0
KTA1 191510Z 17016KT 29/18 A2998 RMK A01 T02900176  RH  050%=      5-min Rain = 0
KTA1 191511Z 17015KT 29/18 A2998 RMK A01 T02900175  RH  050%=      5-min Rain = 0
KTA1 191512Z 18013KT 29/18 A2998 RMK A01 T02900175  RH  050%=      5-min Rain = 0
KTA1 191513Z 17015KT 29/18 A2998 RMK A01 T02900175  RH  050%=      5-min Rain = 0
KTA1 191514Z 16014G19KT 29/18 A2998 RMK A01 T02910177  RH  050%=      5-min Rain = 0
KTA1 191515Z 17016KT 29/18 A2998 RMK A01 T02920175  RH  049%=      5-min Rain = 0
KTA1 191516Z 18014KT 29/18 A2998 RMK A01 T02920176  RH  049%=      5-min Rain = 0
KTA1 191517Z 18013KT 29/18 A2998 RMK A01 T02920176  RH  050%=      5-min Rain = 0
KTA1 191518Z 16012G17KT 29/18 A2998 RMK A01 T02920177  RH  050%=      5-min Rain = 0
KTA1 191519Z 16014KT 29/18 A2998 RMK A01 T02930177  RH  050%=      5-min Rain = 0
KTA1 191520Z 16014KT 29/18 A2998 RMK A01 T02930177  RH  050%=      5-min Rain = 0
KTA1 191521Z 17013KT 29/18 A2998 RMK A01 T02920177  RH  050%=      5-min Rain = 0
KTA1 191522Z 18013KT 29/18 A2998 RMK A01 T02930177  RH  049%=      5-min Rain = 0
KTA1 191523Z 18015KT 29/18 A2998 RMK A01 T02940175  RH  049%=      5-min Rain = 0
KTA1 191524Z 18014KT 29/18 A2998 RMK A01 T02930176  RH  049%=      5-min Rain = 0
KTA1 191525Z 17015KT 29/18 A2998 RMK A01 T02940176  RH  049%=      5-min Rain = 0
KTA1 191526Z 16012KT 30/18 A2998 RMK A01 T02950176  RH  049%=      5-min Rain = 0
KTA1 191527Z 16013G18KT 30/18 A2998 RMK A01 T02960178  RH  049%=      5-min Rain = 0
KTA1 191528Z 17015KT 30/18 A2998 RMK A01 T02970177  RH  049%=      5-min Rain = 0
KTA1 191529Z 17016KT 30/18 A2998 RMK A01 T02970177  RH  049%=      5-min Rain = 0
KTA1 191530Z 17012G17KT 30/18 A2998 RMK A01 T02970177  RH  049%=      5-min Rain = 0
KTA1 191531Z 16014KT 30/18 A2998 RMK A01 T02980178  RH  049%=      5-min Rain = 0
KTA1 191532Z 17014KT 30/18 A2998 RMK A01 T02980178  RH  048%=      5-min Rain = 0
KTA1 191533Z 16016KT 30/18 A2998 RMK A01 T02970177  RH  049%=      5-min Rain = 0
KTA1 191534Z 16015KT 30/18 A2998 RMK A01 T02960177  RH  049%=      5-min Rain = 0
KTA1 191535Z 16015KT 30/18 A2998 RMK A01 T02960178  RH  049%=      5-min Rain = 0
KTA1 191536Z 18014G19KT 30/18 A2998 RMK A01 T02960177  RH  049%=      5-min Rain = 0
KTA1 191537Z 18015KT 30/18 A2998 RMK A01 T02970176  RH  048%=      5-min Rain = 0
KTA1 191538Z 18017KT 30/18 A2998 RMK A01 T02970175  RH  048%=      5-min Rain = 0
KTA1 191539Z 18014KT 30/18 A2998 RMK A01 T02980175  RH  048%=      5-min Rain = 0
KTA1 191540Z 18013KT 30/18 A2998 RMK A01 T02970176  RH  048%=      5-min Rain = 0
KTA1 191541Z 18009KT 30/18 A2998 RMK A01 T02980177  RH  048%=      5-min Rain = 0
KTA1 191542Z 18012KT 30/18 A2998 RMK A01 T03020179  RH  048%=      5-min Rain = 0
KTA1 191543Z 19011G16KT 30/18 A2998 RMK A01 T03030179  RH  047%=      5-min Rain = 0
KTA1 191544Z 18013KT 30/18 A2998 RMK A01 T03040178  RH  047%=      5-min Rain = 0
KTA1 191545Z 17012KT 30/18 A2998 RMK A01 T03040178  RH  047%=      5-min Rain = 0
KTA1 191546Z 19011G18KT 30/18 A2998 RMK A01 T03030178  RH  047%=      5-min Rain = 0
KTA1 191547Z 18014KT 31/18 A2998 RMK A01 T03050176  RH  046%=      5-min Rain = 0
KTA1 191548Z 17011KT 31/18 A2998 RMK A01 T03050176  RH  046%=      5-min Rain = 0
KTA1 191549Z 18010KT 30/18 A2998 RMK A01 T03040178  RH  047%=      5-min Rain = 0
KTA1 191550Z 17013KT 31/18 A2998 RMK A01 T03050177  RH  046%=      5-min Rain = 0
KTA1 191551Z 17013G18KT 31/18 A2998 RMK A01 T03050179  RH  047%=      5-min Rain = 0
KTA1 191552Z 16017KT 31/18 A2998 RMK A01 T03050177  RH  046%=      5-min Rain = 0
KTA1 191553Z 17015G20KT 30/18 A2998 RMK A01 T03040176  RH  046%=      5-min Rain = 0
KTA1 191554Z 17015KT 30/18 A2998 RMK A01 T03040176  RH  047%=      5-min Rain = 0
KTA1 191555Z 18015KT 30/18 A2998 RMK A01 T03040176  RH  046%=      5-min Rain = 0
KTA1 191556Z 18014KT 31/18 A2998 RMK A01 T03050175  RH  046%=      5-min Rain = 0
KTA1 191557Z 19014KT 30/18 A2998 RMK A01 T03040175  RH  046%=      5-min Rain = 0
KTA1 191558Z 17014KT 31/18 A2998 RMK A01 T03050177  RH  046%=      5-min Rain = 0
KTA1 191559Z 17012KT 30/18 A2998 RMK A01 T03040176  RH  046%=      5-min Rain = 0
KTA1 191600Z 17012KT 30/18 A2998 RMK A01 T03040178  RH  047%=      5-min Rain = 0
KTA1 191601Z 17012G17KT 31/18 A2998 RMK A01 T03060179  RH  047%=      5-min Rain = 0
KTA1 191602Z 16014KT 31/18 A2998 RMK A01 T03090178  RH  046%=      5-min Rain = 0
KTA1 191603Z 16015KT 31/18 A2998 RMK A01 T03100179  RH  045%=      5-min Rain = 0
KTA1 191604Z 16014KT 31/18 A2998 RMK A01 T03090178  RH  045%=      5-min Rain = 0
KTA1 191605Z 17013KT 31/18 A2998 RMK A01 T03090178  RH  046%=      5-min Rain = 0
KTA1 191606Z 17014KT 31/18 A2998 RMK A01 T03090178  RH  045%=      5-min Rain = 0
KTA1 191607Z 18014KT 31/18 A2998 RMK A01 T03100178  RH  045%=      5-min Rain = 0
KTA1 191608Z 17014KT 31/18 A2998 RMK A01 T03110177  RH  045%=      5-min Rain = 0
KTA1 191609Z 18012KT 31/18 A2997 RMK A01 T03120177  RH  045%=      5-min Rain = 0
KTA1 191610Z 17012KT 31/18 A2998 RMK A01 T03120178  RH  045%=      5-min Rain = 0
KTA1 191611Z 17013KT 31/18 A2997 RMK A01 T03130180  RH  045%=      5-min Rain = 0
KTA1 191612Z 18013KT 31/18 A2997 RMK A01 T03120178  RH  045%=      5-min Rain = 0
KTA1 191613Z 17015KT 31/18 A2997 RMK A01 T03110176  RH  044%=      5-min Rain = 0
KTA1 191614Z 17013KT 31/18 A2997 RMK A01 T03110175  RH  044%=      5-min Rain = 0
KTA1 191615Z 17013G18KT 31/18 A2997 RMK A01 T03110176  RH  045%=      5-min Rain = 0
KTA1 191616Z 18014KT 31/18 A2997 RMK A01 T03130176  RH  044%=      5-min Rain = 0
KTA1 191617Z 17014KT 31/18 A2997 RMK A01 T03140175  RH  043%=      5-min Rain = 0
KTA1 191618Z 18015KT 32/18 A2997 RMK A01 T03150175  RH  043%=      5-min Rain = 0
KTA1 191619Z 18016KT 32/18 A2997 RMK A01 T03160175  RH  043%=      5-min Rain = 0
KTA1 191620Z 18016KT 32/18 A2997 RMK A01 T03160175  RH  043%=      5-min Rain = 0
KTA1 191621Z 19012KT 31/18 A2997 RMK A01 T03140176  RH  044%=      5-min Rain = 0
KTA1 191622Z 19012KT 32/18 A2997 RMK A01 T03150177  RH  044%=      5-min Rain = 0
KTA1 191623Z 18014KT 32/18 A2997 RMK A01 T03170176  RH  043%=      5-min Rain = 0
KTA1 191624Z 19012KT 32/18 A2997 RMK A01 T03170177  RH  043%=      5-min Rain = 0
KTA1 191625Z 18010KT 32/18 A2997 RMK A01 T03190178  RH  043%=      5-min Rain = 0
KTA1 191626Z 19011KT 32/18 A2997 RMK A01 T03220177  RH  042%=      5-min Rain = 0
KTA1 191627Z 18010G17KT 32/18 A2997 RMK A01 T03210178  RH  042%=      5-min Rain = 0
KTA1 191628Z 19014KT 32/18 A2997 RMK A01 T03210177  RH  042%=      5-min Rain = 0
KTA1 191629Z 19013KT 32/18 A2997 RMK A01 T03210175  RH  042%=      5-min Rain = 0
KTA1 191630Z 18015KT 32/18 A2997 RMK A01 T03180175  RH  042%=      5-min Rain = 0
KTA1 191631Z 18015G20KT 32/17 A2997 RMK A01 T03170173  RH  042%=      5-min Rain = 0
KTA1 191632Z 18017KT 32/17 A2997 RMK A01 T03170174  RH  042%=      5-min Rain = 0
KTA1 191633Z 18013KT 32/17 A2997 RMK A01 T03180173  RH  042%=      5-min Rain = 0
KTA1 191634Z 17013KT 32/18 A2997 RMK A01 T03180175  RH  043%=      5-min Rain = 0
KTA1 191635Z 18014KT 32/18 A2997 RMK A01 T03190176  RH  042%=      5-min Rain = 0
KTA1 191636Z 18013KT 32/18 A2997 RMK A01 T03190176  RH  042%=      5-min Rain = 0
KTA1 191637Z 17014KT 32/18 A2997 RMK A01 T03190175  RH  042%=      5-min Rain = 0
KTA1 191638Z 17016KT 32/18 A2997 RMK A01 T03200176  RH  042%=      5-min Rain = 0
KTA1 191639Z 17012KT 32/18 A2997 RMK A01 T03210176  RH  042%=      5-min Rain = 0
KTA1 191640Z 18011KT 32/18 A2997 RMK A01 T03210175  RH  042%=      5-min Rain = 0
KTA1 191641Z 19011G16KT 32/18 A2997 RMK A01 T03230177  RH  042%=      5-min Rain = 0
KTA1 191642Z 20016KT 33/18 A2997 RMK A01 T03260175  RH  041%=      5-min Rain = 0
KTA1 191643Z 20014KT 32/17 A2997 RMK A01 T03240172  RH  040%=      5-min Rain = 0
KTA1 191644Z 19014KT 32/17 A2997 RMK A01 T03220173  RH  041%=      5-min Rain = 0
KTA1 191645Z 18013G18KT 32/18 A2997 RMK A01 T03220175  RH  041%=      5-min Rain = 0
KTA1 191646Z 18013KT 32/18 A2997 RMK A01 T03230176  RH  041%=      5-min Rain = 0
KTA1 191647Z 17015KT 32/17 A2997 RMK A01 T03230174  RH  041%=      5-min Rain = 0
KTA1 191648Z 17014KT 32/17 A2997 RMK A01 T03230173  RH  041%=      5-min Rain = 0
KTA1 191649Z 19013KT 32/17 A2997 RMK A01 T03240174  RH  041%=      5-min Rain = 0
KTA1 191650Z 19012KT 33/17 A2997 RMK A01 T03260174  RH  040%=      5-min Rain = 0
KTA1 191651Z 19013KT 33/17 A2997 RMK A01 T03260173  RH  040%=      5-min Rain = 0
KTA1 191652Z 19015KT 33/17 A2997 RMK A01 T03260173  RH  040%=      5-min Rain = 0
KTA1 191653Z 19017G22KT 33/17 A2997 RMK A01 T03260174  RH  040%=      5-min Rain = 0
KTA1 191654Z 19015KT 32/17 A2997 RMK A01 T03240174  RH  041%=      5-min Rain = 0
KTA1 191655Z 19013G18KT 33/18 A2997 RMK A01 T03250175  RH  041%=      5-min Rain = 0
KTA1 191656Z 18011G16KT 33/18 A2997 RMK A01 T03260175  RH  040%=      5-min Rain = 0
KTA1 191657Z 18017KT 33/17 A2997 RMK A01 T03280172  RH  040%=      5-min Rain = 0
KTA1 191658Z 18013KT 33/17 A2997 RMK A01 T03290173  RH  039%=      5-min Rain = 0
KTA1 191659Z 19016KT 33/17 A2997 RMK A01 T03310173  RH  039%=      5-min Rain = 0
KTA1 191700Z 19018KT 33/17 A2997 RMK A01 T03290173  RH  039%=      5-min Rain = 0
KTA1 191701Z 18016KT 33/17 A2997 RMK A01 T03260172  RH  040%=      5-min Rain = 0
KTA1 191702Z 18013KT 33/17 A2997 RMK A01 T03260172  RH  040%=      5-min Rain = 0
KTA1 191703Z 18014KT 33/17 A2997 RMK A01 T03280173  RH  040%=      5-min Rain = 0
KTA1 191704Z 19014KT 33/17 A2997 RMK A01 T03280174  RH  040%=      5-min Rain = 0
KTA1 191705Z 20014KT 33/17 A2997 RMK A01 T03280174  RH  040%=      5-min Rain = 0
KTA1 191706Z 20012KT 33/17 A2997 RMK A01 T03290173  RH  039%=      5-min Rain = 0
KTA1 191707Z 20014G19KT 33/17 A2997 RMK A01 T03300173  RH  039%=      5-min Rain = 0
KTA1 191708Z 20016KT 33/17 A2997 RMK A01 T03300172  RH  039%=      5-min Rain = 0
KTA1 191709Z 20013KT 33/17 A2997 RMK A01 T03300173  RH  039%=      5-min Rain = 0
KTA1 191710Z 17009KT 33/18 A2997 RMK A01 T03330177  RH  040%=      5-min Rain = 0
KTA1 191711Z 18011KT 34/18 A2997 RMK A01 T03390179  RH  039%=      5-min Rain = 0
KTA1 191712Z 18014KT 34/18 A2997 RMK A01 T03410178  RH  038%=      5-min Rain = 0
KTA1 191713Z 18017KT 34/17 A2997 RMK A01 T03380173  RH  037%=      5-min Rain = 0
KTA1 191714Z 18016KT 33/17 A2997 RMK A01 T03330171  RH  038%=      5-min Rain = 0
KTA1 191715Z 20015KT 33/17 A2997 RMK A01 T03310171  RH  039%=      5-min Rain = 0
KTA1 191716Z 19016KT 33/17 A2997 RMK A01 T03310171  RH  038%=      5-min Rain = 0
KTA1 191717Z 18015G20KT 33/17 A2997 RMK A01 T03320171  RH  038%=      5-min Rain = 0
KTA1 191718Z 19016KT 33/17 A2997 RMK A01 T03320172  RH  039%=      5-min Rain = 0
KTA1 191719Z 19015KT 33/17 A2997 RMK A01 T03310172  RH  039%=      5-min Rain = 0
KTA1 191720Z 19013KT 33/17 A2997 RMK A01 T03300172  RH  039%=      5-min Rain = 0
KTA1 191721Z 18015KT 33/17 A2997 RMK A01 T03310172  RH  039%=      5-min Rain = 0
KTA1 191722Z 18013KT 33/17 A2997 RMK A01 T03320171  RH  038%=      5-min Rain = 0
KTA1 191723Z 19012KT 34/17 A2997 RMK A01 T03350174  RH  038%=      5-min Rain = 0
KTA1 191724Z 19012KT 34/18 A2997 RMK A01 T03380177  RH  039%=      5-min Rain = 0
KTA1 191725Z 20014KT 34/18 A2997 RMK A01 T03400176  RH  038%=      5-min Rain = 0
KTA1 191726Z 20014KT 34/18 A2997 RMK A01 T03390175  RH  038%=      5-min Rain = 0
KTA1 191727Z 19014KT 34/17 A2997 RMK A01 T03370174  RH  038%=      5-min Rain = 0
KTA1 191728Z 17009G14KT 34/17 A2997 RMK A01 T03350174  RH  038%=      5-min Rain = 0
KTA1 191729Z 17011KT 34/18 A2997 RMK A01 T03390176  RH  038%=      5-min Rain = 0
KTA1 191730Z 20013KT 34/18 A2996 RMK A01 T03420176  RH  037%=      5-min Rain = 0
KTA1 191731Z 20014KT 34/18 A2996 RMK A01 T03420175  RH  037%=      5-min Rain = 0
KTA1 191732Z 19014KT 34/17 A2996 RMK A01 T03390174  RH  038%=      5-min Rain = 0
KTA1 191733Z 19016KT 34/17 A2996 RMK A01 T03380174  RH  038%=      5-min Rain = 0
KTA1 191734Z 18013KT 34/17 A2996 RMK A01 T03370174  RH  038%=      5-min Rain = 0
KTA1 191735Z 17012KT 34/17 A2996 RMK A01 T03360174  RH  038%=      5-min Rain = 0
KTA1 191736Z 17013KT 34/17 A2996 RMK A01 T03370173  RH  038%=      5-min Rain = 0
KTA1 191737Z 18017KT 34/17 A2996 RMK A01 T03400173  RH  037%=      5-min Rain = 0
KTA1 191738Z 18013KT 34/17 A2996 RMK A01 T03400173  RH  037%=      5-min Rain = 0
KTA1 191739Z 17012KT 34/17 A2996 RMK A01 T03390173  RH  037%=      5-min Rain = 0
KTA1 191740Z 19014G19KT 34/18 A2996 RMK A01 T03410175  RH  037%=      5-min Rain = 0
KTA1 191741Z 19013KT 34/17 A2996 RMK A01 T03430173  RH  036%=      5-min Rain = 0
KTA1 191742Z 20012KT 34/17 A2996 RMK A01 T03430172  RH  036%=      5-min Rain = 0
KTA1 191743Z 21010KT 34/17 A2996 RMK A01 T03430170  RH  036%=      5-min Rain = 0
KTA1 191744Z 19010KT 34/17 A2996 RMK A01 T03430170  RH  036%=      5-min Rain = 0
KTA1 191745Z 17012KT 35/17 A2996 RMK A01 T03450173  RH  036%=      5-min Rain = 0
KTA1 191746Z 19013KT 35/17 A2996 RMK A01 T03450172  RH  036%=      5-min Rain = 0
KTA1 191747Z 20012KT 35/17 A2996 RMK A01 T03450173  RH  036%=      5-min Rain = 0
KTA1 191748Z 19015KT 35/17 A2996 RMK A01 T03450173  RH  036%=      5-min Rain = 0
KTA1 191749Z 18011KT 35/17 A2996 RMK A01 T03460173  RH  036%=      5-min Rain = 0
KTA1 191750Z 17011KT 35/17 A2996 RMK A01 T03470171  RH  035%=      5-min Rain = 0
KTA1 191751Z 17013KT 35/17 A2996 RMK A01 T03460170  RH  035%=      5-min Rain = 0
KTA1 191752Z 17010KT 35/17 A2996 RMK A01 T03450170  RH  035%=      5-min Rain = 0
KTA1 191753Z 18013G20KT 35/17 A2996 RMK A01 T03470170  RH  035%=      5-min Rain = 0
KTA1 191754Z 17014KT 35/17 A2996 RMK A01 T03470171  RH  035%=      5-min Rain = 0
KTA1 191755Z 18011KT 35/17 A2996 RMK A01 T03470172  RH  035%=      5-min Rain = 0
KTA1 191756Z 18010KT 35/17 A2996 RMK A01 T03490173  RH  035%=      5-min Rain = 0
KTA1 191757Z 18011G18KT 35/17 A2996 RMK A01 T03470174  RH  036%=      5-min Rain = 0
KTA1 191758Z 17017KT 35/17 A2996 RMK A01 T03470172  RH  035%=      5-min Rain = 0
KTA1 191759Z 17011KT 35/17 A2996 RMK A01 T03450171  RH  036%=      5-min Rain = 0
KTA1 191800Z 19015KT 35/17 A2996 RMK A01 T03460171  RH  035%=      5-min Rain = 0
KTA1 191801Z 18012G17KT 35/17 A2996 RMK A01 T03480169  RH  035%=      5-min Rain = 0
KTA1 191802Z 19011KT 35/17 A2996 RMK A01 T03470168  RH  035%=      5-min Rain = 0
KTA1 191803Z 19013KT 35/17 A2996 RMK A01 T03450171  RH  036%=      5-min Rain = 0
KTA1 191804Z 19014KT 35/17 A2996 RMK A01 T03460173  RH  036%=      5-min Rain = 0
KTA1 191805Z 19012KT 35/17 A2996 RMK A01 T03470172  RH  036%=      5-min Rain = 0
KTA1 191806Z 19014KT 35/17 A2996 RMK A01 T03460173  RH  036%=      5-min Rain = 0
KTA1 191807Z 18012G17KT 35/17 A2996 RMK A01 T03470172  RH  035%=      5-min Rain = 0
KTA1 191808Z 18013KT 35/17 A2996 RMK A01 T03480172  RH  035%=      5-min Rain = 0
KTA1 191809Z 17010KT 35/17 A2996 RMK A01 T03470171  RH  035%=      5-min Rain = 0
KTA1 191810Z 17010KT 35/17 A2996 RMK A01 T03510174  RH  035%=      5-min Rain = 0
KTA1 191811Z 17013KT 36/17 A2996 RMK A01 T03550174  RH  034%=      5-min Rain = 0
KTA1 191812Z 18013KT 35/17 A2996 RMK A01 T03530172  RH  034%=      5-min Rain = 0
KTA1 191813Z 18012KT 35/17 A2996 RMK A01 T03500172  RH  035%=      5-min Rain = 0
KTA1 191814Z 18014KT 35/17 A2996 RMK A01 T03490172  RH  035%=      5-min Rain = 0
KTA1 191815Z 19013KT 35/17 A2996 RMK A01 T03500171  RH  035%=      5-min Rain = 0
KTA1 191816Z 18013KT 35/17 A2996 RMK A01 T03500170  RH  034%=      5-min Rain = 0
KTA1 191817Z 16013G19KT 35/17 A2996 RMK A01 T03500172  RH  035%=      5-min Rain = 0
KTA1 191818Z 18015KT 35/17 A2996 RMK A01 T03510173  RH  035%=      5-min Rain = 0
KTA1 191819Z 18014KT 35/17 A2996 RMK A01 T03520172  RH  035%=      5-min Rain = 0
KTA1 191820Z 16008KT 35/17 A2996 RMK A01 T03510174  RH  035%=      5-min Rain = 0
KTA1 191821Z 20008KT 35/17 A2996 RMK A01 T03510174  RH  035%=      5-min Rain = 0
KTA1 191822Z 18009KT 35/18 A2996 RMK A01 T03530175  RH  035%=      5-min Rain = 0
KTA1 191823Z 19010KT 36/18 A2996 RMK A01 T03560176  RH  034%=      5-min Rain = 0
KTA1 191824Z 19009KT 36/17 A2996 RMK A01 T03570174  RH  034%=      5-min Rain = 0
KTA1 191825Z 18012G18KT 36/17 A2996 RMK A01 T03570174  RH  034%=      5-min Rain = 0
KTA1 191826Z 18016KT 36/17 A2996 RMK A01 T03570171  RH  033%=      5-min Rain = 0
KTA1 191827Z 18011KT 36/17 A2996 RMK A01 T03550171  RH  034%=      5-min Rain = 0
KTA1 191828Z 19010KT 36/17 A2996 RMK A01 T03550172  RH  034%=      5-min Rain = 0
KTA1 191829Z 19009G15KT 36/17 A2996 RMK A01 T03550173  RH  034%=      5-min Rain = 0
KTA1 191830Z 20015KT 36/17 A2995 RMK A01 T03560171  RH  034%=      5-min Rain = 0
KTA1 191831Z 21010KT 36/17 A2996 RMK A01 T03560170  RH  033%=      5-min Rain = 0
KTA1 191832Z 19010KT 35/17 A2996 RMK A01 T03540171  RH  034%=      5-min Rain = 0
KTA1 191833Z 20013KT 36/17 A2996 RMK A01 T03560173  RH  034%=      5-min Rain = 0
KTA1 191834Z 19011KT 36/17 A2996 RMK A01 T03590172  RH  033%=      5-min Rain = 0
KTA1 191835Z 19010KT 36/17 A2995 RMK A01 T03610174  RH  033%=      5-min Rain = 0
KTA1 191836Z 19012KT 36/17 A2995 RMK A01 T03600174  RH  033%=      5-min Rain = 0
KTA1 191837Z 19010KT 36/17 A2995 RMK A01 T03580172  RH  033%=      5-min Rain = 0
KTA1 191838Z 17015KT 36/17 A2995 RMK A01 T03580172  RH  033%=      5-min Rain = 0
KTA1 191839Z 16014KT 36/17 A2995 RMK A01 T03600171  RH  033%=      5-min Rain = 0
KTA1 191840Z 17011KT 36/17 A2995 RMK A01 T03590171  RH  033%=      5-min Rain = 0
KTA1 191841Z 18012KT 36/17 A2995 RMK A01 T03580172  RH  033%=      5-min Rain = 0
KTA1 191842Z 20011KT 36/17 A2996 RMK A01 T03610172  RH  033%=      5-min Rain = 0
KTA1 191843Z 19010G15KT 36/17 A2995 RMK A01 T03610170  RH  032%=      5-min Rain = 0
KTA1 191844Z 18009KT 36/17 A2996 RMK A01 T03580169  RH  033%=      5-min Rain = 0
KTA1 191845Z 17011KT 36/17 A2995 RMK A01 T03570170  RH  033%=      5-min Rain = 0
KTA1 191846Z 17013KT 36/17 A2995 RMK A01 T03580171  RH  033%=      5-min Rain = 0
KTA1 191847Z 17011KT 36/17 A2995 RMK A01 T03600170  RH  033%=      5-min Rain = 0
KTA1 191848Z 17010KT 36/17 A2995 RMK A01 T03600170  RH  032%=      5-min Rain = 0
KTA1 191849Z 17011KT 36/17 A2995 RMK A01 T03590171  RH  033%=      5-min Rain = 0
KTA1 191850Z 17014KT 36/17 A2995 RMK A01 T03620171  RH  033%=      5-min Rain = 0
KTA1 191851Z 19013KT 36/17 A2995 RMK A01 T03610171  RH  033%=      5-min Rain = 0
KTA1 191852Z 16010KT 36/17 A2995 RMK A01 T03600173  RH  033%=      5-min Rain = 0
KTA1 191853Z 17009KT 36/17 A2995 RMK A01 T03610172  RH  033%=      5-min Rain = 0
KTA1 191854Z 16010KT 36/17 A2995 RMK A01 T03610173  RH  033%=      5-min Rain = 0
KTA1 191855Z 18011KT 36/17 A2995 RMK A01 T03630172  RH  033%=      5-min Rain = 0
KTA1 191856Z 19013KT 37/17 A2995 RMK A01 T03650172  RH  032%=      5-min Rain = 0
KTA1 191857Z 19010KT 37/17 A2995 RMK A01 T03650169  RH  032%=      5-min Rain = 0
KTA1 191858Z 19012KT 36/17 A2995 RMK A01 T03630169  RH  032%=      5-min Rain = 0
KTA1 191859Z 17011KT 36/17 A2995 RMK A01 T03630167  RH  032%=      5-min Rain = 0
KTA1 191900Z 19009G14KT 36/17 A2995 RMK A01 T03620167  RH  032%=      5-min Rain = 0
KTA1 191901Z 19011G17KT 36/17 A2995 RMK A01 T03620169  RH  032%=      5-min Rain = 0
KTA1 191902Z 17012KT 36/17 A2995 RMK A01 T03630170  RH  032%=      5-min Rain = 0
KTA1 191903Z 16009KT 36/17 A2995 RMK A01 T03620169  RH  032%=      5-min Rain = 0
KTA1 191904Z 19008KT 36/17 A2995 RMK A01 T03610170  RH  032%=      5-min Rain = 0
KTA1 191905Z 19012KT 36/17 A2995 RMK A01 T03640171  RH  032%=      5-min Rain = 0
KTA1 191906Z 17011G16KT 37/17 A2995 RMK A01 T03670172  RH  032%=      5-min Rain = 0
KTA1 191907Z 18014KT 37/17 A2995 RMK A01 T03700167  RH  030%=      5-min Rain = 0
KTA1 191908Z 19011KT 37/17 A2994 RMK A01 T03650168  RH  031%=      5-min Rain = 0
KTA1 191909Z 17009G15KT 36/17 A2995 RMK A01 T03640168  RH  032%=      5-min Rain = 0
KTA1 191910Z 16013KT 37/17 A2995 RMK A01 T03650171  RH  032%=      5-min Rain = 0
KTA1 191911Z 16010KT 37/17 A2994 RMK A01 T03660171  RH  032%=      5-min Rain = 0
KTA1 191912Z 18013KT 37/17 A2994 RMK A01 T03670170  RH  031%=      5-min Rain = 0
KTA1 191913Z 17011KT 37/17 A2994 RMK A01 T03660167  RH  031%=      5-min Rain = 0
KTA1 191914Z 18015KT 36/17 A2994 RMK A01 T03640167  RH  031%=      5-min Rain = 0
KTA1 191915Z 17017KT 36/17 A2994 RMK A01 T03640168  RH  031%=      5-min Rain = 0
KTA1 191916Z 16011KT 37/17 A2994 RMK A01 T03650168  RH  031%=      5-min Rain = 0
KTA1 191917Z 17012KT 37/17 A2995 RMK A01 T03650168  RH  031%=      5-min Rain = 0
KTA1 191918Z 18008KT 36/17 A2995 RMK A01 T03640168  RH  031%=      5-min Rain = 0
KTA1 191919Z 19012KT 37/17 A2994 RMK A01 T03650166  RH  031%=      5-min Rain = 0
KTA1 191920Z 17010KT 37/17 A2994 RMK A01 T03680169  RH  031%=      5-min Rain = 0
KTA1 191921Z 15009KT 37/17 A2994 RMK A01 T03710169  RH  031%=      5-min Rain = 0
KTA1 191922Z 16010KT 37/17 A2994 RMK A01 T03700170  RH  031%=      5-min Rain = 0
KTA1 191923Z 17012G17KT 37/17 A2994 RMK A01 T03700167  RH  030%=      5-min Rain = 0
KTA1 191924Z 17011KT 37/17 A2994 RMK A01 T03700170  RH  031%=      5-min Rain = 0
KTA1 191925Z 17011KT 37/17 A2994 RMK A01 T03740168  RH  030%=      5-min Rain = 0
KTA1 191926Z 17013KT 37/17 A2994 RMK A01 T03730167  RH  030%=      5-min Rain = 0
KTA1 191927Z 16013KT 37/17 A2994 RMK A01 T03720167  RH  030%=      5-min Rain = 0
KTA1 191928Z 16013KT 37/17 A2994 RMK A01 T03710165  RH  030%=      5-min Rain = 0
KTA1 191929Z 16012G17KT 37/17 A2994 RMK A01 T03700166  RH  030%=      5-min Rain = 0
KTA1 191930Z 17013KT 37/17 A2994 RMK A01 T03710168  RH  030%=      5-min Rain = 0
KTA1 191931Z 17014KT 37/17 A2994 RMK A01 T03730167  RH  030%=      5-min Rain = 0
KTA1 191932Z 16012G17KT 37/17 A2994 RMK A01 T03720166  RH  030%=      5-min Rain = 0
KTA1 191933Z 16015KT 37/17 A2994 RMK A01 T03700166  RH  030%=      5-min Rain = 0
KTA1 191934Z 17012KT 37/17 A2994 RMK A01 T03690167  RH  030%=      5-min Rain = 0
KTA1 191935Z 18010G17KT 37/17 A2994 RMK A01 T03700166  RH  030%=      5-min Rain = 0
KTA1 191936Z 19014KT 37/17 A2994 RMK A01 T03730166  RH  030%=      5-min Rain = 0
KTA1 191937Z 20014KT 37/16 A2994 RMK A01 T03730164  RH  029%=      5-min Rain = 0
KTA1 191938Z 20014KT 37/16 A2994 RMK A01 T03700162  RH  029%=      5-min Rain = 0
KTA1 191939Z 19012KT 37/16 A2994 RMK A01 T03680163  RH  030%=      5-min Rain = 0
KTA1 191940Z 19013KT 37/16 A2994 RMK A01 T03680161  RH  029%=      5-min Rain = 0
KTA1 191941Z 20012KT 37/16 A2994 RMK A01 T03710161  RH  029%=      5-min Rain = 0
KTA1 191942Z 20009KT 37/16 A2994 RMK A01 T03730160  RH  029%=      5-min Rain = 0
KTA1 191943Z 20013KT 38/16 A2994 RMK A01 T03750160  RH  028%=      5-min Rain = 0
KTA1 191944Z 19013KT 37/16 A2994 RMK A01 T03730162  RH  029%=      5-min Rain = 0
KTA1 191945Z 19009KT 37/16 A2994 RMK A01 T03720161  RH  029%=      5-min Rain = 0
KTA1 191946Z 18005KT 37/16 A2994 RMK A01 T03680161  RH  029%=      5-min Rain = 0
KTA1 191947Z 19009G14KT 37/16 A2993 RMK A01 T03700163  RH  030%=      5-min Rain = 0
KTA1 191948Z 18012KT 38/16 A2993 RMK A01 T03750163  RH  029%=      5-min Rain = 0
KTA1 191949Z 18011KT 38/16 A2993 RMK A01 T03760162  RH  028%=      5-min Rain = 0
KTA1 191950Z 15010KT 38/16 A2993 RMK A01 T03770162  RH  028%=      5-min Rain = 0
KTA1 191951Z 15009KT 38/16 A2993 RMK A01 T03770163  RH  028%=      5-min Rain = 0
KTA1 191952Z 16010KT 38/16 A2993 RMK A01 T03750162  RH  028%=      5-min Rain = 0
KTA1 191953Z 17009KT 37/16 A2993 RMK A01 T03740159  RH  028%=      5-min Rain = 0
KTA1 191954Z 16013KT 37/16 A2993 RMK A01 T03740158  RH  028%=      5-min Rain = 0
KTA1 191955Z 17012KT 37/16 A2993 RMK A01 T03740155  RH  027%=      5-min Rain = 0
KTA1 191956Z 17008KT 37/15 A2993 RMK A01 T03730154  RH  027%=      5-min Rain = 0
KTA1 191957Z 18009G15KT 37/15 A2993 RMK A01 T03710154  RH  028%=      5-min Rain = 0
KTA1 191958Z 19013KT 37/15 A2993 RMK A01 T03710154  RH  028%=      5-min Rain = 0
KTA1 191959Z 18010KT 37/15 A2993 RMK A01 T03730152  RH  027%=      5-min Rain = 0
KTA1 192000Z 19010KT 38/16 A2993 RMK A01 T03750157  RH  028%=      5-min Rain = 0
KTA1 192001Z 19012KT 38/16 A2993 RMK A01 T03780158  RH  027%=      5-min Rain = 0
KTA1 192002Z 19012KT 38/16 A2993 RMK A01 T03760155  RH  027%=      5-min Rain = 0
KTA1 192003Z 20011KT 37/16 A2993 RMK A01 T03740156  RH  028%=      5-min Rain = 0
KTA1 192004Z 20007KT 37/15 A2993 RMK A01 T03720154  RH  028%=      5-min Rain = 0
KTA1 192005Z 17005KT 37/15 A2993 RMK A01 T03710154  RH  028%=      5-min Rain = 0
KTA1 192006Z 19012KT 37/16 A2993 RMK A01 T03710155  RH  028%=      5-min Rain = 0
KTA1 192007Z 19010KT 37/16 A2993 RMK A01 T03720156  RH  028%=      5-min Rain = 0
KTA1 192008Z 19007KT 37/16 A2993 RMK A01 T03740157  RH  028%=      5-min Rain = 0
KTA1 192009Z 20009KT 38/16 A2993 RMK A01 T03770155  RH  027%=      5-min Rain = 0
KTA1 192010Z 20011KT 38/16 A2993 RMK A01 T03760155  RH  027%=      5-min Rain = 0
KTA1 192011Z 18014KT 38/16 A2993 RMK A01 T03780157  RH  027%=      5-min Rain = 0
KTA1 192012Z 18014KT 38/16 A2993 RMK A01 T03790156  RH  027%=      5-min Rain = 0
KTA1 192013Z 17013KT 38/16 A2993 RMK A01 T03780156  RH  027%=      5-min Rain = 0
KTA1 192014Z 17012KT 38/16 A2993 RMK A01 T03800155  RH  027%=      5-min Rain = 0
KTA1 192015Z 17010KT 38/15 A2993 RMK A01 T03790153  RH  026%=      5-min Rain = 0
KTA1 192016Z 16008KT 38/15 A2993 RMK A01 T03780153  RH  026%=      5-min Rain = 0
KTA1 192017Z 15009KT 38/15 A2993 RMK A01 T03770153  RH  027%=      5-min Rain = 0
KTA1 192018Z 16009KT 38/16 A2993 RMK A01 T03760158  RH  028%=      5-min Rain = 0
KTA1 192019Z 18011KT 38/15 A2993 RMK A01 T03770152  RH  027%=      5-min Rain = 0
KTA1 192020Z 19009KT 38/15 A2993 RMK A01 T03770151  RH  026%=      5-min Rain = 0
KTA1 192021Z 19010G17KT 38/15 A2993 RMK A01 T03780154  RH  027%=      5-min Rain = 0
KTA1 192022Z 19013G18KT 38/15 A2993 RMK A01 T03770154  RH  027%=      5-min Rain = 0
KTA1 192023Z 18007KT 38/16 A2992 RMK A01 T03770155  RH  027%=      5-min Rain = 0
KTA1 192024Z 19008G13KT 38/16 A2992 RMK A01 T03800156  RH  027%=      5-min Rain = 0
KTA1 192025Z 20013KT 38/15 A2992 RMK A01 T03830154  RH  026%=      5-min Rain = 0
KTA1 192026Z 19009KT 38/15 A2992 RMK A01 T03840153  RH  026%=      5-min Rain = 0
KTA1 192027Z 19013KT 38/15 A2992 RMK A01 T03810153  RH  026%=      5-min Rain = 0
KTA1 192028Z 19012KT 38/15 A2992 RMK A01 T03810148  RH  025%=      5-min Rain = 0
KTA1 192029Z 17013KT 38/15 A2992 RMK A01 T03800151  RH  026%=      5-min Rain = 0
KTA1 192030Z 15011KT 38/15 A2992 RMK A01 T03810153  RH  026%=      5-min Rain = 0
KTA1 192031Z 16009KT 38/15 A2992 RMK A01 T03840151  RH  025%=      5-min Rain = 0
KTA1 192032Z 16012G18KT 39/15 A2992 RMK A01 T03860152  RH  025%=      5-min Rain = 0
KTA1 192033Z 16012G17KT 38/16 A2992 RMK A01 T03830155  RH  026%=      5-min Rain = 0
KTA1 192034Z 16010KT 38/16 A2992 RMK A01 T03820156  RH  026%=      5-min Rain = 0
KTA1 192035Z 14009KT 38/15 A2992 RMK A01 T03830150  RH  025%=      5-min Rain = 0
KTA1 192036Z 15008KT 38/15 A2992 RMK A01 T03820148  RH  025%=      5-min Rain = 0
KTA1 192037Z 18012G18KT 38/15 A2992 RMK A01 T03800151  RH  026%=      5-min Rain = 0
KTA1 192038Z 18016KT 38/15 A2992 RMK A01 T03790151  RH  026%=      5-min Rain = 0
KTA1 192039Z 18010KT 38/15 A2992 RMK A01 T03790147  RH  025%=      5-min Rain = 0
KTA1 192040Z 18008KT 38/15 A2992 RMK A01 T03790150  RH  026%=      5-min Rain = 0
KTA1 192041Z 20009KT 38/15 A2992 RMK A01 T03810153  RH  026%=      5-min Rain = 0
KTA1 192042Z 20008KT 38/15 A2992 RMK A01 T03810153  RH  026%=      5-min Rain = 0
KTA1 192043Z 16008G14KT 38/15 A2992 RMK A01 T03790154  RH  027%=      5-min Rain = 0
KTA1 192044Z 17012KT 38/16 A2992 RMK A01 T03800156  RH  027%=      5-min Rain = 0
KTA1 192045Z 19010KT 38/16 A2992 RMK A01 T03820155  RH  026%=      5-min Rain = 0
KTA1 192046Z 19015KT 38/16 A2992 RMK A01 T03820155  RH  026%=      5-min Rain = 0
KTA1 192047Z 19013KT 38/16 A2992 RMK A01 T03790155  RH  027%=      5-min Rain = 0
KTA1 192048Z 19013KT 38/15 A2992 RMK A01 T03790153  RH  026%=      5-min Rain = 0
KTA1 192049Z 19014G19KT 38/15 A2992 RMK A01 T03780154  RH  027%=      5-min Rain = 0
KTA1 192050Z 19009KT 38/15 A2992 RMK A01 T03770152  RH  026%=      5-min Rain = 0
KTA1 192051Z 18010KT 38/15 A2992 RMK A01 T03770154  RH  027%=      5-min Rain = 0
KTA1 192052Z 16008KT 38/16 A2991 RMK A01 T03780155  RH  027%=      5-min Rain = 0
KTA1 192053Z 19013KT 38/15 A2991 RMK A01 T03800154  RH  026%=      5-min Rain = 0
KTA1 192054Z 19009KT 38/15 A2991 RMK A01 T03830154  RH  026%=      5-min Rain = 0
KTA1 192055Z 19009KT 39/15 A2991 RMK A01 T03870153  RH  025%=      5-min Rain = 0
KTA1 192056Z 16006KT 39/15 A2991 RMK A01 T03880154  RH  025%=      5-min Rain = 0
KTA1 192057Z 15006G12KT 39/16 A2991 RMK A01 T03900157  RH  025%=      5-min Rain = 0
KTA1 192058Z 15013G18KT 39/16 A2991 RMK A01 T03910156  RH  025%=      5-min Rain = 0
KTA1 192059Z 15014KT 39/16 A2991 RMK A01 T03880155  RH  025%=      5-min Rain = 0
KTA1 192100Z 17013KT 39/16 A2991 RMK A01 T03860155  RH  026%=      5-min Rain = 0
KTA1 192101Z 14011KT 38/16 A2991 RMK A01 T03840155  RH  026%=      5-min Rain = 0
KTA1 192102Z 15009KT 39/15 A2991 RMK A01 T03850153  RH  025%=      5-min Rain = 0
KTA1 192103Z 16011KT 38/15 A2991 RMK A01 T03840154  RH  026%=      5-min Rain = 0
KTA1 192104Z 16010KT 38/16 A2991 RMK A01 T03810157  RH  027%=      5-min Rain = 0
KTA1 192105Z 18014KT 38/16 A2991 RMK A01 T03820157  RH  027%=      5-min Rain = 0
KTA1 192106Z 17010KT 38/16 A2991 RMK A01 T03830155  RH  026%=      5-min Rain = 0
KTA1 192107Z 19012KT 38/16 A2991 RMK A01 T03830156  RH  026%=      5-min Rain = 0
KTA1 192108Z 19011KT 38/16 A2991 RMK A01 T03820156  RH  027%=      5-min Rain = 0
KTA1 192109Z 18010KT 38/16 A2991 RMK A01 T03780156  RH  027%=      5-min Rain = 0
KTA1 192110Z 17008G14KT 38/16 A2991 RMK A01 T03780158  RH  027%=      5-min Rain = 0
KTA1 192111Z 17011G16KT 38/16 A2991 RMK A01 T03830159  RH  027%=      5-min Rain = 0
KTA1 192112Z 16010G17KT 39/16 A2991 RMK A01 T03860159  RH  026%=      5-min Rain = 0
KTA1 192113Z 15012G18KT 39/16 A2991 RMK A01 T03860158  RH  026%=      5-min Rain = 0
KTA1 192114Z 15011KT 38/16 A2991 RMK A01 T03820158  RH  027%=      5-min Rain = 0
KTA1 192115Z 15011G16KT 38/16 A2991 RMK A01 T03810158  RH  027%=      5-min Rain = 0
KTA1 192116Z 17014KT 38/16 A299 RMK A01 T03820156  RH  026%=      5-min Rain = 0
KTA1 192117Z 18012G19KT 38/15 A2991 RMK A01 T03820153  RH  026%=      5-min Rain = 0
KTA1 192118Z 19013G18KT 38/15 A2991 RMK A01 T03840148  RH  025%=      5-min Rain = 0
KTA1 192119Z 19010KT 38/15 A2991 RMK A01 T03840149  RH  025%=      5-min Rain = 0
KTA1 192120Z 18011KT 39/15 A2991 RMK A01 T03880150  RH  025%=      5-min Rain = 0
KTA1 192121Z 19011KT 39/15 A299 RMK A01 T03900148  RH  024%=      5-min Rain = 0
KTA1 192122Z 18008KT 39/14 A299 RMK A01 T03860144  RH  024%=      5-min Rain = 0
KTA1 192123Z 17005KT 38/14 A299 RMK A01 T03810143  RH  024%=      5-min Rain = 0
KTA1 192124Z 14005KT 38/15 A299 RMK A01 T03800145  RH  025%=      5-min Rain = 0
KTA1 192125Z 15011G17KT 38/15 A299 RMK A01 T03830149  RH  025%=      5-min Rain = 0
KTA1 192126Z 16016KT 39/15 A299 RMK A01 T03860148  RH  025%=      5-min Rain = 0
KTA1 192127Z 17012KT 38/15 A299 RMK A01 T03830146  RH  025%=      5-min Rain = 0
KTA1 192128Z 15011KT 38/15 A299 RMK A01 T03840147  RH  025%=      5-min Rain = 0
KTA1 192129Z 15016KT 39/15 A299 RMK A01 T03860149  RH  025%=      5-min Rain = 0
KTA1 192130Z 15016KT 39/15 A299 RMK A01 T03880149  RH  025%=      5-min Rain = 0
KTA1 192131Z 15013KT 39/15 A299 RMK A01 T03850148  RH  025%=      5-min Rain = 0
KTA1 192132Z 15010KT 38/15 A299 RMK A01 T03840148  RH  025%=      5-min Rain = 0
KTA1 192133Z 17010KT 38/15 A299 RMK A01 T03820147  RH  025%=      5-min Rain = 0
KTA1 192134Z 17009KT 38/15 A299 RMK A01 T03800146  RH  025%=      5-min Rain = 0
KTA1 192135Z 14009KT 38/15 A299 RMK A01 T03790147  RH  025%=      5-min Rain = 0
KTA1 192136Z 13013KT 38/15 A299 RMK A01 T03800149  RH  026%=      5-min Rain = 0
KTA1 192137Z 14012KT 38/15 A299 RMK A01 T03800147  RH  025%=      5-min Rain = 0
KTA1 192138Z 15014KT 38/15 A299 RMK A01 T03800147  RH  025%=      5-min Rain = 0
KTA1 192139Z 16014KT 38/15 A2989 RMK A01 T03800149  RH  026%=      5-min Rain = 0
KTA1 192140Z 16012KT 38/15 A299 RMK A01 T03800149  RH  026%=      5-min Rain = 0
KTA1 192141Z 16013KT 38/15 A299 RMK A01 T03810150  RH  025%=      5-min Rain = 0
KTA1 192142Z 16011KT 38/15 A2989 RMK A01 T03800148  RH  025%=      5-min Rain = 0
KTA1 192143Z 16013G18KT 38/15 A2989 RMK A01 T03800150  RH  026%=      5-min Rain = 0
KTA1 192144Z 15013KT 38/15 A2989 RMK A01 T03840150  RH  025%=      5-min Rain = 0
KTA1 192145Z 16010KT 39/15 A299 RMK A01 T03860151  RH  025%=      5-min Rain = 0
KTA1 192146Z 16010KT 39/15 A2989 RMK A01 T03880149  RH  024%=      5-min Rain = 0
KTA1 192147Z 15010KT 39/15 A2989 RMK A01 T03860149  RH  025%=      5-min Rain = 0
KTA1 192148Z 15013KT 39/15 A2989 RMK A01 T03850149  RH  025%=      5-min Rain = 0
KTA1 192149Z 16010G15KT 38/15 A299 RMK A01 T03840150  RH  025%=      5-min Rain = 0
KTA1 192150Z 18009KT 39/15 A2989 RMK A01 T03860149  RH  025%=      5-min Rain = 0
KTA1 192151Z 18012G19KT 39/15 A2989 RMK A01 T03880147  RH  024%=      5-min Rain = 0
KTA1 192152Z 17014KT 39/14 A2989 RMK A01 T03880143  RH  023%=      5-min Rain = 0
KTA1 192153Z 17012KT 39/14 A299 RMK A01 T03860143  RH  024%=      5-min Rain = 0
KTA1 192154Z 17012KT 39/14 A2989 RMK A01 T03860143  RH  024%=      5-min Rain = 0
KTA1 192155Z 16012KT 38/14 A2989 RMK A01 T03840143  RH  024%=      5-min Rain = 0
KTA1 192156Z 16012KT 38/14 A2989 RMK A01 T03820144  RH  024%=      5-min Rain = 0
KTA1 192157Z 17009KT 38/15 A2989 RMK A01 T03820145  RH  025%=      5-min Rain = 0
KTA1 192158Z 18009KT 39/15 A2989 RMK A01 T03870148  RH  024%=      5-min Rain = 0
KTA1 192159Z 18008G13KT 39/15 A2989 RMK A01 T03900145  RH  024%=      5-min Rain = 0
KTA1 192200Z 17006KT 39/15 A2989 RMK A01 T03890147  RH  024%=      5-min Rain = 0
KTA1 192201Z 16005KT 39/15 A2989 RMK A01 T03900147  RH  024%=      5-min Rain = 0
KTA1 192202Z 17013G19KT 39/15 A2989 RMK A01 T03910146  RH  024%=      5-min Rain = 0
KTA1 192203Z 16013G18KT 39/14 A2989 RMK A01 T03910144  RH  023%=      5-min Rain = 0
KTA1 192204Z 17013KT 39/14 A2989 RMK A01 T03870141  RH  023%=      5-min Rain = 0
KTA1 192205Z 17011KT 39/14 A2989 RMK A01 T03850140  RH  023%=      5-min Rain = 0
KTA1 192206Z 17011KT 39/14 A2989 RMK A01 T03850141  RH  024%=      5-min Rain = 0
KTA1 192207Z 18008KT 38/14 A2989 RMK A01 T03840140  RH  024%=      5-min Rain = 0
KTA1 192208Z 16010KT 38/14 A2989 RMK A01 T03830144  RH  024%=      5-min Rain = 0
KTA1 192209Z 17009KT 38/14 A2989 RMK A01 T03830142  RH  024%=      5-min Rain = 0
KTA1 192210Z 17008KT 38/14 A2989 RMK A01 T03820142  RH  024%=      5-min Rain = 0
KTA1 192211Z 15012KT 38/15 A2989 RMK A01 T03840145  RH  024%=      5-min Rain = 0
KTA1 192212Z 14010KT 38/15 A2989 RMK A01 T03830146  RH  025%=      5-min Rain = 0
KTA1 192213Z 14010KT 38/15 A2989 RMK A01 T03820148  RH  025%=      5-min Rain = 0
KTA1 192214Z 14011KT 38/15 A2989 RMK A01 T03830149  RH  025%=      5-min Rain = 0
KTA1 192215Z 15011G16KT 39/15 A2989 RMK A01 T03850151  RH  025%=      5-min Rain = 0
KTA1 192216Z 15012G18KT 39/15 A2989 RMK A01 T03870152  RH  025%=      5-min Rain = 0
KTA1 192217Z 14016KT 39/15 A2989 RMK A01 T03860148  RH  025%=      5-min Rain = 0
KTA1 192218Z 14013KT 38/15 A2989 RMK A01 T03830147  RH  025%=      5-min Rain = 0
KTA1 192219Z 12012KT 38/15 A2989 RMK A01 T03820148  RH  025%=      5-min Rain = 0
KTA1 192220Z 13012KT 38/15 A2989 RMK A01 T03830147  RH  025%=      5-min Rain = 0
KTA1 192221Z 13014KT 38/15 A2989 RMK A01 T03830146  RH  025%=      5-min Rain = 0
KTA1 192222Z 15012G18KT 38/15 A2989 RMK A01 T03840148  RH  025%=      5-min Rain = 0
KTA1 192223Z 16010KT 39/15 A2989 RMK A01 T03860145  RH  024%=      5-min Rain = 0
KTA1 192224Z 17013KT 39/15 A2989 RMK A01 T03880146  RH  024%=      5-min Rain = 0
KTA1 192225Z 18018KT 39/15 A2989 RMK A01 T03880146  RH  024%=      5-min Rain = 0
KTA1 192226Z 18013KT 39/15 A2989 RMK A01 T03850146  RH  024%=      5-min Rain = 0
KTA1 192227Z 17009KT 38/15 A2989 RMK A01 T03830147  RH  025%=      5-min Rain = 0
KTA1 192228Z 17013KT 38/15 A2989 RMK A01 T03810145  RH  025%=      5-min Rain = 0
KTA1 192229Z 17014KT 38/15 A2989 RMK A01 T03810147  RH  025%=      5-min Rain = 0
KTA1 192230Z 18011KT 38/15 A2989 RMK A01 T03810147  RH  025%=      5-min Rain = 0
KTA1 192231Z 17011G20KT 38/15 A2989 RMK A01 T03810146  RH  025%=      5-min Rain = 0
KTA1 192232Z 17016KT 38/14 A2989 RMK A01 T03820143  RH  024%=      5-min Rain = 0
KTA1 192233Z 17015KT 38/14 A2989 RMK A01 T03820144  RH  024%=      5-min Rain = 0
KTA1 192234Z 17013KT 38/14 A2989 RMK A01 T03820144  RH  025%=      5-min Rain = 0
KTA1 192235Z 17012KT 38/14 A2989 RMK A01 T03800142  RH  024%=      5-min Rain = 0
KTA1 192236Z 15013KT 38/14 A2989 RMK A01 T03790144  RH  025%=      5-min Rain = 0
KTA1 192237Z 15010KT 38/14 A2989 RMK A01 T03800144  RH  025%=      5-min Rain = 0
KTA1 192238Z 14009KT 38/14 A2989 RMK A01 T03800143  RH  025%=      5-min Rain = 0
KTA1 192239Z 14010KT 38/14 A2988 RMK A01 T03800143  RH  025%=      5-min Rain = 0
KTA1 192240Z 14008KT 38/14 A2988 RMK A01 T03810143  RH  024%=      5-min Rain = 0
KTA1 192241Z 16008KT 38/15 A2988 RMK A01 T03830145  RH  025%=      5-min Rain = 0
KTA1 192242Z 17008KT 38/14 A2988 RMK A01 T03840143  RH  024%=      5-min Rain = 0
KTA1 192243Z 17010KT 38/14 A2988 RMK A01 T03830144  RH  024%=      5-min Rain = 0
KTA1 192244Z 17013KT 38/15 A2988 RMK A01 T03830146  RH  025%=      5-min Rain = 0
KTA1 192245Z 17011KT 38/15 A2988 RMK A01 T03830145  RH  024%=      5-min Rain = 0
KTA1 192246Z 16013KT 38/14 A2988 RMK A01 T03840144  RH  024%=      5-min Rain = 0
KTA1 192247Z 17012KT 38/14 A2988 RMK A01 T03830142  RH  024%=      5-min Rain = 0
KTA1 192248Z 17009KT 38/14 A2988 RMK A01 T03810140  RH  024%=      5-min Rain = 0
KTA1 192249Z 16012KT 38/14 A2988 RMK A01 T03810144  RH  025%=      5-min Rain = 0
KTA1 192250Z 16011KT 38/15 A2988 RMK A01 T03830145  RH  025%=      5-min Rain = 0
KTA1 192251Z 17008KT 38/15 A2988 RMK A01 T03820147  RH  025%=      5-min Rain = 0
KTA1 192252Z 16011KT 38/15 A2988 RMK A01 T03830149  RH  025%=      5-min Rain = 0
KTA1 192253Z 15013KT 38/15 A2988 RMK A01 T03840150  RH  025%=      5-min Rain = 0
KTA1 192254Z 15012KT 38/15 A2988 RMK A01 T03830150  RH  025%=      5-min Rain = 0
KTA1 192255Z 15011KT 38/15 A2988 RMK A01 T03830150  RH  025%=      5-min Rain = 0
KTA1 192256Z 15008KT 38/15 A2988 RMK A01 T03840149  RH  025%=      5-min Rain = 0
KTA1 192257Z 16013KT 38/15 A2988 RMK A01 T03830149  RH  025%=      5-min Rain = 0
KTA1 192258Z 17015KT 38/15 A2988 RMK A01 T03820145  RH  025%=      5-min Rain = 0
KTA1 192259Z 15013G18KT 38/14 A2988 RMK A01 T03820144  RH  024%=      5-min Rain = 0
KTA1 192300Z 16012KT 38/14 A2988 RMK A01 T03820143  RH  024%=      5-min Rain = 0
KTA1 192301Z 17010KT 38/14 A2988 RMK A01 T03820142  RH  024%=      5-min Rain = 0
KTA1 192302Z 15012KT 38/14 A2988 RMK A01 T03820144  RH  024%=      5-min Rain = 0
KTA1 192303Z 16012KT 38/14 A2988 RMK A01 T03810143  RH  024%=      5-min Rain = 0
KTA1 192304Z 16011KT 38/14 A2988 RMK A01 T03800143  RH  025%=      5-min Rain = 0
KTA1 192305Z 16014G19KT 38/14 A2988 RMK A01 T03810142  RH  024%=      5-min Rain = 0
KTA1 192306Z 16016KT 38/14 A2988 RMK A01 T03800142  RH  024%=      5-min Rain = 0
KTA1 192307Z 17010KT 38/14 A2988 RMK A01 T03780142  RH  025%=      5-min Rain = 0
KTA1 192308Z 17011KT 38/14 A2988 RMK A01 T03770142  RH  025%=      5-min Rain = 0
KTA1 192309Z 16011KT 38/15 A2988 RMK A01 T03770145  RH  025%=      5-min Rain = 0
KTA1 192310Z 16013KT 38/15 A2988 RMK A01 T03800147  RH  025%=      5-min Rain = 0
KTA1 192311Z 16014KT 38/15 A2988 RMK A01 T03810147  RH  025%=      5-min Rain = 0
KTA1 192312Z 17017KT 38/15 A2988 RMK A01 T03800146  RH  025%=      5-min Rain = 0
KTA1 192313Z 18013KT 38/15 A2988 RMK A01 T03790145  RH  025%=      5-min Rain = 0
KTA1 192314Z 18015KT 38/15 A2988 RMK A01 T03800147  RH  025%=      5-min Rain = 0
KTA1 192315Z 17017KT 38/15 A2988 RMK A01 T03810147  RH  025%=      5-min Rain = 0
KTA1 192316Z 17013KT 38/15 A2988 RMK A01 T03810145  RH  025%=      5-min Rain = 0
KTA1 192317Z 18009KT 38/15 A2988 RMK A01 T03790146  RH  025%=      5-min Rain = 0
KTA1 192318Z 17010KT 38/15 A2988 RMK A01 T03780146  RH  025%=      5-min Rain = 0
KTA1 192319Z 18010KT 38/15 A2988 RMK A01 T03780146  RH  025%=      5-min Rain = 0
KTA1 192320Z 18009KT 38/15 A2988 RMK A01 T03780146  RH  025%=      5-min Rain = 0
KTA1 192321Z 15009KT 38/15 A2988 RMK A01 T03780145  RH  025%=      5-min Rain = 0
KTA1 192322Z 14008KT 38/15 A2988 RMK A01 T03790148  RH  025%=      5-min Rain = 0
KTA1 192323Z 16014KT 38/15 A2988 RMK A01 T03800148  RH  025%=      5-min Rain = 0
KTA1 192324Z 16011G18KT 38/15 A2988 RMK A01 T03800147  RH  025%=      5-min Rain = 0
KTA1 192325Z 17014KT 38/15 A2988 RMK A01 T03790145  RH  025%=      5-min Rain = 0
KTA1 192326Z 16011KT 38/14 A2988 RMK A01 T03790143  RH  025%=      5-min Rain = 0
KTA1 192327Z 17012KT 38/14 A2988 RMK A01 T03780144  RH  025%=      5-min Rain = 0
KTA1 192328Z 16011KT 38/14 A2988 RMK A01 T03780144  RH  025%=      5-min Rain = 0
KTA1 192329Z 16010KT 38/15 A2988 RMK A01 T03780147  RH  026%=      5-min Rain = 0
KTA1 192330Z 15009KT 38/15 A2988 RMK A01 T03790145  RH  025%=      5-min Rain = 0
KTA1 192331Z 15010KT 38/15 A2988 RMK A01 T03790147  RH  025%=      5-min Rain = 0
KTA1 192332Z 15012G17KT 38/15 A2988 RMK A01 T03780146  RH  025%=      5-min Rain = 0
KTA1 192333Z 16016KT 38/14 A2988 RMK A01 T03780144  RH  025%=      5-min Rain = 0
KTA1 192334Z 16013KT 38/14 A2988 RMK A01 T03770143  RH  025%=      5-min Rain = 0
KTA1 192335Z 17010KT 38/14 A2988 RMK A01 T03780144  RH  025%=      5-min Rain = 0
KTA1 192336Z 17011KT 38/15 A2988 RMK A01 T03790146  RH  025%=      5-min Rain = 0
KTA1 192337Z 18012KT 38/15 A2988 RMK A01 T03800146  RH  025%=      5-min Rain = 0
KTA1 192338Z 17012KT 38/15 A2988 RMK A01 T03800146  RH  025%=      5-min Rain = 0
KTA1 192339Z 15013KT 38/15 A2988 RMK A01 T03800147  RH  025%=      5-min Rain = 0
KTA1 192340Z 15014KT 38/15 A2988 RMK A01 T03790150  RH  026%=      5-min Rain = 0
KTA1 192341Z 15015KT 38/15 A2988 RMK A01 T03760149  RH  026%=      5-min Rain = 0
KTA1 192342Z 16013KT 37/15 A2988 RMK A01 T03730148  RH  026%=      5-min Rain = 0
KTA1 192343Z 17013KT 37/15 A2988 RMK A01 T03700148  RH  027%=      5-min Rain = 0
KTA1 192344Z 15012G17KT 37/15 A2988 RMK A01 T03690147  RH  027%=      5-min Rain = 0
KTA1 192345Z 14013KT 37/15 A2988 RMK A01 T03700147  RH  027%=      5-min Rain = 0
KTA1 192346Z 15009KT 37/15 A2988 RMK A01 T03710148  RH  027%=      5-min Rain = 0
KTA1 192347Z 14012KT 37/15 A2988 RMK A01 T03730148  RH  026%=      5-min Rain = 0
KTA1 192348Z 13013KT 37/15 A2988 RMK A01 T03740148  RH  026%=      5-min Rain = 0
KTA1 192349Z 13011KT 37/15 A2988 RMK A01 T03740149  RH  026%=      5-min Rain = 0
KTA1 192350Z 14009KT 37/15 A2988 RMK A01 T03730148  RH  026%=      5-min Rain = 0
KTA1 192351Z 16010KT 37/15 A2988 RMK A01 T03730148  RH  026%=      5-min Rain = 0
KTA1 192352Z 18008KT 37/15 A2988 RMK A01 T03730149  RH  026%=      5-min Rain = 0
KTA1 192353Z 17010G15KT 37/15 A2988 RMK A01 T03730148  RH  026%=      5-min Rain = 0
KTA1 192354Z 18015KT 37/14 A2988 RMK A01 T03730143  RH  025%=      5-min Rain = 0
KTA1 192355Z 19013KT 37/14 A2988 RMK A01 T03730140  RH  025%=      5-min Rain = 0
KTA1 192356Z 18014KT 37/14 A2988 RMK A01 T03730141  RH  025%=      5-min Rain = 0
KTA1 192357Z 18014KT 37/14 A2988 RMK A01 T03740139  RH  025%=      5-min Rain = 0
KTA1 192358Z 18014KT 37/14 A2988 RMK A01 T03730140  RH  025%=      5-min Rain = 0
KTA1 192359Z 17011KT 37/14 A2988 RMK A01 T03720140  RH  025%=      5-min Rain = 0
KTA1 200000Z 17012KT 37/14 A2988 RMK A01 T03730141  RH  025%=      5-min Rain = 0
KTA1 200001Z 17010G16KT 37/14 A2988 RMK A01 T03740142  RH  025%=      5-min Rain = 0
KTA1 200002Z 17011G16KT 37/14 A2988 RMK A01 T03740143  RH  025%=      5-min Rain = 0
KTA1 200003Z 16010KT 37/14 A2988 RMK A01 T03740144  RH  025%=      5-min Rain = 0
KTA1 200004Z 16009KT 37/14 A2988 RMK A01 T03730144  RH  026%=      5-min Rain = 0
KTA1 200005Z 15010KT 37/15 A2988 RMK A01 T03730147  RH  026%=      5-min Rain = 0
KTA1 200006Z 15010G15KT 37/15 A2988 RMK A01 T03730150  RH  027%=      5-min Rain = 0
KTA1 200007Z 16014KT 37/15 A2988 RMK A01 T03730150  RH  027%=      5-min Rain = 0
KTA1 200008Z 17012KT 37/15 A2988 RMK A01 T03730149  RH  027%=      5-min Rain = 0
KTA1 200009Z 16012KT 37/15 A2988 RMK A01 T03730147  RH  026%=      5-min Rain = 0
KTA1 200010Z 16011G16KT 37/15 A2988 RMK A01 T03730148  RH  026%=      5-min Rain = 0
KTA1 200011Z 16009KT 37/15 A2988 RMK A01 T03730148  RH  026%=      5-min Rain = 0
KTA1 200012Z 15009KT 37/15 A2988 RMK A01 T03730149  RH  027%=      5-min Rain = 0
KTA1 200013Z 17010KT 37/15 A2988 RMK A01 T03740148  RH  026%=      5-min Rain = 0
KTA1 200014Z 16011KT 37/14 A2988 RMK A01 T03740143  RH  025%=      5-min Rain = 0
KTA1 200015Z 16008KT 37/14 A2988 RMK A01 T03740144  RH  026%=      5-min Rain = 0
KTA1 200016Z 18013G18KT 37/14 A2988 RMK A01 T03730144  RH  026%=      5-min Rain = 0
KTA1 200017Z 17012KT 37/14 A2988 RMK A01 T03730144  RH  026%=      5-min Rain = 0
KTA1 200018Z 17013KT 37/14 A2988 RMK A01 T03720143  RH  026%=      5-min Rain = 0
KTA1 200019Z 16011KT 37/14 A2988 RMK A01 T03710144  RH  026%=      5-min Rain = 0
KTA1 200020Z 17013G19KT 37/15 A2988 RMK A01 T03710145  RH  026%=      5-min Rain = 0
KTA1 200021Z 16014KT 37/15 A2988 RMK A01 T03710147  RH  027%=      5-min Rain = 0
KTA1 200022Z 17013KT 37/15 A2988 RMK A01 T03700149  RH  027%=      5-min Rain = 0
KTA1 200023Z 15016KT 37/15 A2988 RMK A01 T03700151  RH  027%=      5-min Rain = 0
KTA1 200024Z 15015KT 37/15 A2988 RMK A01 T03690152  RH  028%=      5-min Rain = 0
KTA1 200025Z 15015KT 37/15 A2988 RMK A01 T03690151  RH  027%=      5-min Rain = 0
KTA1 200026Z 15012KT 37/15 A2988 RMK A01 T03670151  RH  028%=      5-min Rain = 0
KTA1 200027Z 15014KT 37/15 A2988 RMK A01 T03670151  RH  028%=      5-min Rain = 0
KTA1 200028Z 15015KT 37/15 A2988 RMK A01 T03660150  RH  028%=      5-min Rain = 0
KTA1 200029Z 14014KT 37/15 A2988 RMK A01 T03650149  RH  028%=      5-min Rain = 0
KTA1 200030Z 14013KT 37/15 A2988 RMK A01 T03650149  RH  028%=      5-min Rain = 0
KTA1 200031Z 14011KT 37/15 A2988 RMK A01 T03650149  RH  028%=      5-min Rain = 0
KTA1 200032Z 14015KT 37/15 A2988 RMK A01 T03650150  RH  028%=      5-min Rain = 0
KTA1 200033Z 14016G21KT 36/15 A2988 RMK A01 T03640150  RH  028%=      5-min Rain = 0
KTA1 200034Z 14015KT 36/15 A2988 RMK A01 T03640151  RH  028%=      5-min Rain = 0
KTA1 200035Z 15015KT 36/15 A2988 RMK A01 T03640151  RH  028%=      5-min Rain = 0
KTA1 200036Z 15012KT 36/15 A2988 RMK A01 T03640148  RH  028%=      5-min Rain = 0
KTA1 200037Z 16013G18KT 37/15 A2988 RMK A01 T03650149  RH  028%=      5-min Rain = 0
KTA1 200038Z 17017G23KT 37/15 A2988 RMK A01 T03650146  RH  027%=      5-min Rain = 0
KTA1 200039Z 17016G21KT 36/15 A2988 RMK A01 T03640145  RH  027%=      5-min Rain = 0
KTA1 200040Z 17015KT 36/15 A2988 RMK A01 T03640146  RH  027%=      5-min Rain = 0
KTA1 200041Z 17014KT 36/15 A2988 RMK A01 T03640147  RH  027%=      5-min Rain = 0
KTA1 200042Z 16012G18KT 36/15 A2988 RMK A01 T03640148  RH  028%=      5-min Rain = 0
KTA1 200043Z 16015KT 36/15 A2988 RMK A01 T03640148  RH  028%=      5-min Rain = 0
KTA1 200044Z 16015KT 36/15 A2988 RMK A01 T03630147  RH  028%=      5-min Rain = 0
KTA1 200045Z 16014KT 36/15 A2988 RMK A01 T03620146  RH  028%=      5-min Rain = 0
KTA1 200046Z 16014KT 36/15 A2988 RMK A01 T03610146  RH  028%=      5-min Rain = 0
KTA1 200047Z 15014KT 36/15 A2988 RMK A01 T03610146  RH  028%=      5-min Rain = 0
KTA1 200048Z 16013KT 36/15 A2988 RMK A01 T03610146  RH  028%=      5-min Rain = 0
KTA1 200049Z 17016KT 36/15 A2988 RMK A01 T03610146  RH  028%=      5-min Rain = 0
KTA1 200050Z 17014KT 36/15 A2988 RMK A01 T03610145  RH  028%=      5-min Rain = 0
KTA1 200051Z 16015KT 36/15 A2988 RMK A01 T03610145  RH  028%=      5-min Rain = 0
KTA1 200052Z 16013KT 36/15 A2989 RMK A01 T03610145  RH  028%=      5-min Rain = 0
KTA1 200053Z 16012KT 36/15 A2989 RMK A01 T03610146  RH  028%=      5-min Rain = 0
KTA1 200054Z 16012KT 36/15 A2989 RMK A01 T03600146  RH  028%=      5-min Rain = 0
KTA1 200055Z 15015KT 36/15 A2989 RMK A01 T03600145  RH  028%=      5-min Rain = 0
KTA1 200056Z 15017KT 36/15 A2989 RMK A01 T03600145  RH  028%=      5-min Rain = 0
KTA1 200057Z 16015KT 36/14 A2989 RMK A01 T03590144  RH  028%=      5-min Rain = 0
KTA1 200058Z 16012KT 36/15 A2989 RMK A01 T03580145  RH  028%=      5-min Rain = 0
KTA1 200059Z 16014KT 36/15 A2989 RMK A01 T03580146  RH  028%=      5-min Rain = 0
KTA1 200100Z 17015KT 36/15 A2989 RMK A01 T03580147  RH  028%=      5-min Rain = 0
KTA1 200101Z 16013KT 36/15 A2989 RMK A01 T03580147  RH  028%=      5-min Rain = 0
KTA1 200102Z 17014KT 36/15 A2989 RMK A01 T03570147  RH  028%=      5-min Rain = 0
KTA1 200103Z 15014KT 36/15 A2989 RMK A01 T03580147  RH  029%=      5-min Rain = 0
KTA1 200104Z 15012KT 36/15 A2989 RMK A01 T03570148  RH  029%=      5-min Rain = 0
KTA1 200105Z 16013KT 36/15 A2989 RMK A01 T03560148  RH  029%=      5-min Rain = 0
KTA1 200106Z 16012G17KT 36/15 A2989 RMK A01 T03560148  RH  029%=      5-min Rain = 0
KTA1 200107Z 16013KT 36/15 A2989 RMK A01 T03550147  RH  029%=      5-min Rain = 0
KTA1 200108Z 15014G20KT 35/15 A2989 RMK A01 T03540147  RH  029%=      5-min Rain = 0
KTA1 200109Z 16015G20KT 35/15 A2989 RMK A01 T03540147  RH  029%=      5-min Rain = 0
KTA1 200110Z 16018KT 35/15 A2989 RMK A01 T03540146  RH  029%=      5-min Rain = 0
KTA1 200111Z 16015G20KT 35/15 A2989 RMK A01 T03530146  RH  029%=      5-min Rain = 0
KTA1 200112Z 16014KT 35/15 A2989 RMK A01 T03530146  RH  029%=      5-min Rain = 0
KTA1 200113Z 15014KT 35/15 A2989 RMK A01 T03520146  RH  029%=      5-min Rain = 0
KTA1 200114Z 15012G18KT 35/15 A2989 RMK A01 T03520147  RH  029%=      5-min Rain = 0
KTA1 200115Z 16014KT 35/15 A2989 RMK A01 T03520147  RH  029%=      5-min Rain = 0
KTA1 200116Z 16015KT 35/15 A2989 RMK A01 T03510146  RH  029%=      5-min Rain = 0
KTA1 200117Z 16016KT 35/15 A2989 RMK A01 T03510145  RH  029%=      5-min Rain = 0
KTA1 200118Z 16016KT 35/15 A2989 RMK A01 T03510145  RH  029%=      5-min Rain = 0
KTA1 200119Z 16013KT 35/15 A2989 RMK A01 T03500145  RH  029%=      5-min Rain = 0
KTA1 200120Z 16014KT 35/15 A2989 RMK A01 T03500146  RH  029%=      5-min Rain = 0
KTA1 200121Z 16015KT 35/15 A2989 RMK A01 T03500146  RH  030%=      5-min Rain = 0
KTA1 200122Z 16014KT 35/15 A2989 RMK A01 T03490146  RH  030%=      5-min Rain = 0
KTA1 200123Z 16015KT 35/15 A2989 RMK A01 T03480145  RH  030%=      5-min Rain = 0
KTA1 200124Z 15015KT 35/15 A2989 RMK A01 T03480145  RH  030%=      5-min Rain = 0
KTA1 200125Z 16015KT 35/15 A2989 RMK A01 T03470145  RH  030%=      5-min Rain = 0
KTA1 200126Z 16017KT 35/15 A2989 RMK A01 T03470145  RH  030%=      5-min Rain = 0
KTA1 200127Z 16015KT 35/15 A2989 RMK A01 T03460145  RH  030%=      5-min Rain = 0
KTA1 200128Z 15017KT 35/15 A2989 RMK A01 T03460145  RH  030%=      5-min Rain = 0
KTA1 200129Z 16017KT 35/15 A2989 RMK A01 T03460145  RH  030%=      5-min Rain = 0
KTA1 200130Z 16016KT 35/15 A2989 RMK A01 T03460145  RH  030%=      5-min Rain = 0
KTA1 200131Z 16014G19KT 35/15 A2989 RMK A01 T03450145  RH  030%=      5-min Rain = 0
KTA1 200132Z 16015KT 35/15 A2989 RMK A01 T03450145  RH  030%=      5-min Rain = 0
KTA1 200133Z 15014KT 35/15 A299 RMK A01 T03450145  RH  030%=      5-min Rain = 0
KTA1 200134Z 16014G20KT 34/15 A299 RMK A01 T03440145  RH  030%=      5-min Rain = 0
KTA1 200135Z 16014G20KT 34/14 A299 RMK A01 T03430144  RH  030%=      5-min Rain = 0
KTA1 200136Z 16015G20KT 34/15 A299 RMK A01 T03430145  RH  030%=      5-min Rain = 0
KTA1 200137Z 16015KT 34/14 A299 RMK A01 T03430144  RH  030%=      5-min Rain = 0
KTA1 200138Z 16013KT 34/15 A299 RMK A01 T03420145  RH  031%=      5-min Rain = 0
KTA1 200139Z 16013KT 34/14 A299 RMK A01 T03410144  RH  031%=      5-min Rain = 0
KTA1 200140Z 15014KT 34/15 A299 RMK A01 T03410145  RH  031%=      5-min Rain = 0
KTA1 200141Z 16013KT 34/14 A299 RMK A01 T03410144  RH  031%=      5-min Rain = 0
KTA1 200142Z 16012KT 34/14 A299 RMK A01 T03400144  RH  031%=      5-min Rain = 0
KTA1 200143Z 15015KT 34/14 A299 RMK A01 T03390144  RH  031%=      5-min Rain = 0
KTA1 200144Z 15015KT 34/14 A299 RMK A01 T03390143  RH  031%=      5-min Rain = 0
KTA1 200145Z 15015KT 34/14 A299 RMK A01 T03390143  RH  031%=      5-min Rain = 0
KTA1 200146Z 15013KT 34/14 A299 RMK A01 T03390143  RH  031%=      5-min Rain = 0
KTA1 200147Z 16014KT 34/14 A299 RMK A01 T03380143  RH  031%=      5-min Rain = 0
KTA1 200148Z 16015KT 34/14 A299 RMK A01 T03380143  RH  031%=      5-min Rain = 0
KTA1 200149Z 16014KT 34/14 A299 RMK A01 T03380143  RH  031%=      5-min Rain = 0
KTA1 200150Z 15012KT 34/14 A299 RMK A01 T03370142  RH  031%=      5-min Rain = 0
KTA1 200151Z 15015G21KT 34/14 A299 RMK A01 T03370142  RH  031%=      5-min Rain = 0
KTA1 200152Z 16015KT 34/14 A299 RMK A01 T03360142  RH  031%=      5-min Rain = 0
KTA1 200153Z 16016KT 34/14 A299 RMK A01 T03360141  RH  031%=      5-min Rain = 0
KTA1 200154Z 16013KT 34/14 A299 RMK A01 T03360141  RH  031%=      5-min Rain = 0
KTA1 200155Z 16012KT 34/14 A299 RMK A01 T03360141  RH  031%=      5-min Rain = 0
KTA1 200156Z 15012KT 34/14 A299 RMK A01 T03350141  RH  031%=      5-min Rain = 0
KTA1 200157Z 16013KT 33/14 A299 RMK A01 T03340141  RH  031%=      5-min Rain = 0
KTA1 200158Z 15012KT 33/14 A299 RMK A01 T03340140  RH  031%=      5-min Rain = 0
KTA1 200159Z 15011KT 33/14 A299 RMK A01 T03330141  RH  031%=      5-min Rain = 0
KTA1 200200Z 16014G20KT 33/14 A299 RMK A01 T03320140  RH  031%=      5-min Rain = 0
KTA1 200201Z 16015KT 33/14 A299 RMK A01 T03320139  RH  031%=      5-min Rain = 0
KTA1 200202Z 15012KT 33/14 A2991 RMK A01 T03320139  RH  031%=      5-min Rain = 0
KTA1 200203Z 16011KT 33/14 A2991 RMK A01 T03320139  RH  031%=      5-min Rain = 0
KTA1 200204Z 16014KT 33/14 A2991 RMK A01 T03320138  RH  031%=      5-min Rain = 0
KTA1 200205Z 16014KT 33/14 A2991 RMK A01 T03320138  RH  031%=      5-min Rain = 0
KTA1 200206Z 16012KT 33/14 A2991 RMK A01 T03310138  RH  031%=      5-min Rain = 0
KTA1 200207Z 16012KT 33/14 A2991 RMK A01 T03310138  RH  031%=      5-min Rain = 0
KTA1 200208Z 16011KT 33/14 A2991 RMK A01 T03300138  RH  031%=      5-min Rain = 0
KTA1 200209Z 16011KT 33/14 A2991 RMK A01 T03300138  RH  031%=      5-min Rain = 0
KTA1 200210Z 16011KT 33/14 A2991 RMK A01 T03290137  RH  031%=      5-min Rain = 0
KTA1 200211Z 16014KT 33/14 A2991 RMK A01 T03290137  RH  031%=      5-min Rain = 0
KTA1 200212Z 15013KT 33/14 A2991 RMK A01 T03290136  RH  031%=      5-min Rain = 0
KTA1 200213Z 16011KT 33/14 A2991 RMK A01 T03290136  RH  031%=      5-min Rain = 0
KTA1 200214Z 15010KT 33/14 A2991 RMK A01 T03290136  RH  031%=      5-min Rain = 0
KTA1 200215Z 15011KT 33/14 A2991 RMK A01 T03280135  RH  031%=      5-min Rain = 0
KTA1 200216Z 15011KT 33/14 A2991 RMK A01 T03270135  RH  031%=      5-min Rain = 0
KTA1 200217Z 15011KT 33/14 A2991 RMK A01 T03260135  RH  031%=      5-min Rain = 0
KTA1 200218Z 15014KT 33/13 A2991 RMK A01 T03260134  RH  031%=      5-min Rain = 0
KTA1 200219Z 16013KT 33/13 A2991 RMK A01 T03250133  RH  031%=      5-min Rain = 0
KTA1 200220Z 15013KT 33/13 A2991 RMK A01 T03260132  RH  031%=      5-min Rain = 0
KTA1 200221Z 16012KT 33/13 A2991 RMK A01 T03260132  RH  031%=      5-min Rain = 0
KTA1 200222Z 16014KT 33/13 A2991 RMK A01 T03260131  RH  031%=      5-min Rain = 0
KTA1 200223Z 16013KT 33/13 A2991 RMK A01 T03260131  RH  031%=      5-min Rain = 0
KTA1 200224Z 15014KT 33/13 A2991 RMK A01 T03250130  RH  030%=      5-min Rain = 0
KTA1 200225Z 15012G17KT 33/13 A2991 RMK A01 T03260130  RH  030%=      5-min Rain = 0
KTA1 200226Z 16013KT 33/13 A2991 RMK A01 T03250129  RH  030%=      5-min Rain = 0
KTA1 200227Z 15012KT 33/13 A2991 RMK A01 T03250128  RH  030%=      5-min Rain = 0
KTA1 200228Z 15011KT 33/13 A2992 RMK A01 T03250128  RH  030%=      5-min Rain = 0
KTA1 200229Z 15012KT 32/13 A2991 RMK A01 T03240128  RH  030%=      5-min Rain = 0
KTA1 200230Z 15013KT 32/13 A2991 RMK A01 T03240127  RH  030%=      5-min Rain = 0
KTA1 200231Z 15012KT 32/13 A2992 RMK A01 T03230127  RH  030%=      5-min Rain = 0
KTA1 200232Z 16012KT 32/13 A2992 RMK A01 T03220126  RH  030%=      5-min Rain = 0
KTA1 200233Z 15012G17KT 32/13 A2992 RMK A01 T03220126  RH  030%=      5-min Rain = 0
KTA1 200234Z 15011KT 32/13 A2992 RMK A01 T03220125  RH  030%=      5-min Rain = 0
KTA1 200235Z 15013KT 32/12 A2992 RMK A01 T03220124  RH  030%=      5-min Rain = 0
KTA1 200236Z 16012KT 32/12 A2992 RMK A01 T03220124  RH  030%=      5-min Rain = 0
KTA1 200237Z 15013KT 32/12 A2992 RMK A01 T03220124  RH  030%=      5-min Rain = 0
KTA1 200238Z 16013KT 32/12 A2992 RMK A01 T03220123  RH  030%=      5-min Rain = 0
KTA1 200239Z 16013KT 32/12 A2992 RMK A01 T03220123  RH  030%=      5-min Rain = 0
KTA1 200240Z 16013KT 32/12 A2992 RMK A01 T03210123  RH  030%=      5-min Rain = 0
KTA1 200241Z 16015KT 32/12 A2992 RMK A01 T03210122  RH  030%=      5-min Rain = 0
KTA1 200242Z 16012KT 32/12 A2992 RMK A01 T03210121  RH  030%=      5-min Rain = 0
KTA1 200243Z 15013KT 32/12 A2992 RMK A01 T03210121  RH  030%=      5-min Rain = 0
KTA1 200244Z 16011KT 32/12 A2992 RMK A01 T03210121  RH  030%=      5-min Rain = 0
KTA1 200245Z 16014KT 32/12 A2992 RMK A01 T03200121  RH  030%=      5-min Rain = 0
KTA1 200246Z 16013KT 32/12 A2992 RMK A01 T03200121  RH  030%=      5-min Rain = 0
KTA1 200247Z 16013KT 32/12 A2992 RMK A01 T03200121  RH  030%=      5-min Rain = 0
KTA1 200248Z 16012KT 32/12 A2992 RMK A01 T03200120  RH  030%=      5-min Rain = 0
KTA1 200249Z 16013KT 32/12 A2992 RMK A01 T03190121  RH  030%=      5-min Rain = 0
KTA1 200250Z 16013KT 32/12 A2992 RMK A01 T03190120  RH  030%=      5-min Rain = 0
KTA1 200251Z 16012G18KT 32/12 A2992 RMK A01 T03190121  RH  030%=      5-min Rain = 0
KTA1 200252Z 16013KT 32/12 A2992 RMK A01 T03180121  RH  030%=      5-min Rain = 0
KTA1 200253Z 16012KT 32/12 A2992 RMK A01 T03180121  RH  030%=      5-min Rain = 0
KTA1 200254Z 16013KT 32/12 A2992 RMK A01 T03180121  RH  030%=      5-min Rain = 0
KTA1 200255Z 15014G19KT 32/12 A2992 RMK A01 T03170120  RH  030%=      5-min Rain = 0
KTA1 200256Z 15014KT 32/12 A2992 RMK A01 T03180120  RH  030%=      5-min Rain = 0
KTA1 200257Z 15013KT 32/12 A2993 RMK A01 T03180120  RH  030%=      5-min Rain = 0
KTA1 200258Z 16013KT 32/12 A2993 RMK A01 T03170120  RH  030%=      5-min Rain = 0
KTA1 200259Z 16012KT 32/12 A2993 RMK A01 T03170120  RH  030%=      5-min Rain = 0
KTA1 200300Z 16012KT 32/12 A2993 RMK A01 T03160119  RH  030%=      5-min Rain = 0
KTA1 200301Z 16014KT 32/12 A2993 RMK A01 T03160119  RH  030%=      5-min Rain = 0
KTA1 200302Z 15014KT 32/12 A2993 RMK A01 T03160119  RH  030%=      5-min Rain = 0
KTA1 200303Z 16013KT 32/12 A2993 RMK A01 T03160119  RH  030%=      5-min Rain = 0
KTA1 200304Z 16012KT 32/12 A2993 RMK A01 T03160119  RH  030%=      5-min Rain = 0
KTA1 200305Z 16015KT 32/12 A2993 RMK A01 T03150119  RH  030%=      5-min Rain = 0
KTA1 200306Z 16014KT 32/12 A2993 RMK A01 T03150119  RH  030%=      5-min Rain = 0
KTA1 200307Z 16012KT 32/12 A2993 RMK A01 T03150119  RH  030%=      5-min Rain = 0
KTA1 200308Z 16011KT 32/12 A2993 RMK A01 T03150119  RH  030%=      5-min Rain = 0
KTA1 200309Z 16013G18KT 31/12 A2993 RMK A01 T03140119  RH  030%=      5-min Rain = 0
KTA1 200310Z 16013KT 31/12 A2993 RMK A01 T03140119  RH  030%=      5-min Rain = 0
KTA1 200311Z 16014KT 31/12 A2993 RMK A01 T03140118  RH  030%=      5-min Rain = 0
KTA1 200312Z 16013G18KT 31/12 A2993 RMK A01 T03140118  RH  030%=      5-min Rain = 0
KTA1 200313Z 16015KT 31/12 A2993 RMK A01 T03130118  RH  030%=      5-min Rain = 0
KTA1 200314Z 16014KT 31/12 A2993 RMK A01 T03130118  RH  030%=      5-min Rain = 0
KTA1 200315Z 16013KT 31/12 A2994 RMK A01 T03130118  RH  030%=      5-min Rain = 0
KTA1 200316Z 16013KT 31/12 A2994 RMK A01 T03130118  RH  030%=      5-min Rain = 0
KTA1 200317Z 15012KT 31/12 A2994 RMK A01 T03130117  RH  030%=      5-min Rain = 0
KTA1 200318Z 16011KT 31/12 A2994 RMK A01 T03130118  RH  030%=      5-min Rain = 0
KTA1 200319Z 16011KT 31/12 A2994 RMK A01 T03120118  RH  030%=      5-min Rain = 0
KTA1 200320Z 15011KT 31/12 A2994 RMK A01 T03120118  RH  030%=      5-min Rain = 0
KTA1 200321Z 16011KT 31/12 A2994 RMK A01 T03110118  RH  031%=      5-min Rain = 0
KTA1 200322Z 16012KT 31/12 A2994 RMK A01 T03100118  RH  031%=      5-min Rain = 0
KTA1 200323Z 15012KT 31/12 A2994 RMK A01 T03100119  RH  031%=      5-min Rain = 0
KTA1 200324Z 16011KT 31/12 A2994 RMK A01 T03100119  RH  031%=      5-min Rain = 0
KTA1 200325Z 16013KT 31/12 A2994 RMK A01 T03100119  RH  031%=      5-min Rain = 0
KTA1 200326Z 16013KT 31/12 A2994 RMK A01 T03100120  RH  031%=      5-min Rain = 0
KTA1 200327Z 16013KT 31/12 A2994 RMK A01 T03100120  RH  031%=      5-min Rain = 0
KTA1 200328Z 16011KT 31/12 A2994 RMK A01 T03090120  RH  031%=      5-min Rain = 0
KTA1 200329Z 16012KT 31/12 A2994 RMK A01 T03090121  RH  032%=      5-min Rain = 0
KTA1 200330Z 16014KT 31/12 A2994 RMK A01 T03090121  RH  032%=      5-min Rain = 0
KTA1 200331Z 16013KT 31/12 A2995 RMK A01 T03090121  RH  032%=      5-min Rain = 0
KTA1 200332Z 16013KT 31/12 A2994 RMK A01 T03090121  RH  032%=      5-min Rain = 0
KTA1 200333Z 16014KT 31/12 A2995 RMK A01 T03090122  RH  032%=      5-min Rain = 0
KTA1 200334Z 16014KT 31/12 A2995 RMK A01 T03090122  RH  032%=      5-min Rain = 0
KTA1 200335Z 16011KT 31/12 A2995 RMK A01 T03090123  RH  032%=      5-min Rain = 0
KTA1 200336Z 16012KT 31/12 A2995 RMK A01 T03080123  RH  032%=      5-min Rain = 0
KTA1 200337Z 16013KT 31/12 A2995 RMK A01 T03080124  RH  032%=      5-min Rain = 0
KTA1 200338Z 16013KT 31/12 A2995 RMK A01 T03070123  RH  032%=      5-min Rain = 0
KTA1 200339Z 16013KT 31/12 A2995 RMK A01 T03070124  RH  032%=      5-min Rain = 0
KTA1 200340Z 16014KT 31/12 A2995 RMK A01 T03070124  RH  033%=      5-min Rain = 0
KTA1 200341Z 16015KT 31/12 A2995 RMK A01 T03070124  RH  033%=      5-min Rain = 0
KTA1 200342Z 16013KT 31/12 A2995 RMK A01 T03070124  RH  033%=      5-min Rain = 0
KTA1 200343Z 16013KT 31/13 A2995 RMK A01 T03070125  RH  033%=      5-min Rain = 0
KTA1 200344Z 16012KT 31/13 A2995 RMK A01 T03070125  RH  033%=      5-min Rain = 0
KTA1 200345Z 16014KT 31/13 A2995 RMK A01 T03060125  RH  033%=      5-min Rain = 0
KTA1 200346Z 16015KT 31/13 A2995 RMK A01 T03060125  RH  033%=      5-min Rain = 0
KTA1 200347Z 16013KT 31/13 A2995 RMK A01 T03060125  RH  033%=      5-min Rain = 0
KTA1 200348Z 16011KT 31/13 A2995 RMK A01 T03060125  RH  033%=      5-min Rain = 0
KTA1 200349Z 16011KT 31/13 A2995 RMK A01 T03050126  RH  033%=      5-min Rain = 0
KTA1 200350Z 16014KT 31/13 A2995 RMK A01 T03050126  RH  033%=      5-min Rain = 0
KTA1 200351Z 16013KT 31/13 A2995 RMK A01 T03050126  RH  033%=      5-min Rain = 0
KTA1 200352Z 16013KT 31/13 A2995 RMK A01 T03050126  RH  033%=      5-min Rain = 0
KTA1 200353Z 16013KT 31/13 A2995 RMK A01 T03050126  RH  033%=      5-min Rain = 0
KTA1 200354Z 16015KT 30/13 A2995 RMK A01 T03040126  RH  034%=      5-min Rain = 0
KTA1 200355Z 16011KT 30/13 A2995 RMK A01 T03040127  RH  034%=      5-min Rain = 0
KTA1 200356Z 16013KT 30/13 A2995 RMK A01 T03040127  RH  034%=      5-min Rain = 0
KTA1 200357Z 16013KT 30/13 A2995 RMK A01 T03030127  RH  034%=      5-min Rain = 0
KTA1 200358Z 16014KT 30/13 A2995 RMK A01 T03030127  RH  034%=      5-min Rain = 0
KTA1 200359Z 16013G18KT 30/13 A2995 RMK A01 T03030127  RH  034%=      5-min Rain = 0
KTA1 200400Z 16013KT 30/13 A2995 RMK A01 T03030127  RH  034%=      5-min Rain = 0
KTA1 200401Z 16015KT 30/13 A2995 RMK A01 T03030128  RH  034%=      5-min Rain = 0
KTA1 200402Z 16012KT 30/13 A2995 RMK A01 T03030128  RH  034%=      5-min Rain = 0
KTA1 200403Z 16013KT 30/13 A2995 RMK A01 T03020128  RH  034%=      5-min Rain = 0
KTA1 200404Z 16010KT 30/13 A2995 RMK A01 T03020128  RH  034%=      5-min Rain = 0
KTA1 200405Z 16012KT 30/13 A2995 RMK A01 T03020128  RH  034%=      5-min Rain = 0
KTA1 200406Z 15013KT 30/13 A2996 RMK A01 T03010128  RH  035%=      5-min Rain = 0
KTA1 200407Z 16014KT 30/13 A2996 RMK A01 T03010128  RH  035%=      5-min Rain = 0
KTA1 200408Z 16010KT 30/13 A2996 RMK A01 T03000128  RH  035%=      5-min Rain = 0
KTA1 200409Z 16012G17KT 30/13 A2996 RMK A01 T03010129  RH  035%=      5-min Rain = 0
KTA1 200410Z 16013KT 30/13 A2996 RMK A01 T03000129  RH  035%=      5-min Rain = 0
KTA1 200411Z 16012KT 30/13 A2996 RMK A01 T03000129  RH  035%=      5-min Rain = 0
KTA1 200412Z 16012KT 30/13 A2996 RMK A01 T02990129  RH  035%=      5-min Rain = 0
KTA1 200413Z 15013KT 30/13 A2996 RMK A01 T02990129  RH  035%=      5-min Rain = 0
KTA1 200414Z 16011KT 30/13 A2996 RMK A01 T02990129  RH  035%=      5-min Rain = 0
KTA1 200415Z 16012KT 30/13 A2996 RMK A01 T02990130  RH  035%=      5-min Rain = 0
KTA1 200416Z 16012KT 30/13 A2996 RMK A01 T02990129  RH  035%=      5-min Rain = 0
KTA1 200417Z 16013KT 30/13 A2996 RMK A01 T02990130  RH  035%=      5-min Rain = 0
KTA1 200418Z 16011KT 30/13 A2996 RMK A01 T02990130  RH  035%=      5-min Rain = 0
KTA1 200419Z 16011KT 30/13 A2996 RMK A01 T02980130  RH  036%=      5-min Rain = 0
KTA1 200420Z 16012KT 30/13 A2996 RMK A01 T02980130  RH  036%=      5-min Rain = 0
KTA1 200421Z 16012KT 30/13 A2996 RMK A01 T02980130  RH  036%=      5-min Rain = 0
KTA1 200422Z 16013KT 30/13 A2996 RMK A01 T02980131  RH  036%=      5-min Rain = 0
KTA1 200423Z 16013KT 30/13 A2996 RMK A01 T02980131  RH  036%=      5-min Rain = 0
KTA1 200424Z 16012KT 30/13 A2996 RMK A01 T02980131  RH  036%=      5-min Rain = 0
KTA1 200425Z 17011KT 30/13 A2996 RMK A01 T02970131  RH  036%=      5-min Rain = 0
KTA1 200426Z 16012KT 30/13 A2996 RMK A01 T02970131  RH  036%=      5-min Rain = 0
KTA1 200427Z 16011KT 30/13 A2996 RMK A01 T02970131  RH  036%=      5-min Rain = 0
KTA1 200428Z 16011KT 30/13 A2996 RMK A01 T02970131  RH  036%=      5-min Rain = 0
KTA1 200429Z 16013KT 30/13 A2996 RMK A01 T02960131  RH  036%=      5-min Rain = 0
KTA1 200430Z 16011KT 30/13 A2996 RMK A01 T02960132  RH  036%=      5-min Rain = 0
KTA1 200431Z 16011KT 30/13 A2996 RMK A01 T02960131  RH  036%=      5-min Rain = 0
KTA1 200432Z 16012KT 30/13 A2996 RMK A01 T02960132  RH  036%=      5-min Rain = 0
KTA1 200433Z 16011KT 30/13 A2996 RMK A01 T02970132  RH  036%=      5-min Rain = 0
KTA1 200434Z 16012KT 30/13 A2996 RMK A01 T02960132  RH  036%=      5-min Rain = 0
KTA1 200435Z 16013KT 30/13 A2996 RMK A01 T02970132  RH  036%=      5-min Rain = 0
KTA1 200436Z 17012KT 30/13 A2996 RMK A01 T02970132  RH  036%=      5-min Rain = 0
KTA1 200437Z 16012KT 30/13 A2996 RMK A01 T02970132  RH  036%=      5-min Rain = 0
KTA1 200438Z 16012KT 30/13 A2996 RMK A01 T02970133  RH  036%=      5-min Rain = 0
KTA1 200439Z 16013KT 30/13 A2996 RMK A01 T02970132  RH  037%=      5-min Rain = 0
KTA1 200440Z 16013KT 30/13 A2996 RMK A01 T02970133  RH  037%=      5-min Rain = 0
KTA1 200441Z 16012KT 30/13 A2996 RMK A01 T02960133  RH  037%=      5-min Rain = 0
KTA1 200442Z 16011KT 30/13 A2996 RMK A01 T02960133  RH  037%=      5-min Rain = 0
KTA1 200443Z 16011KT 30/13 A2996 RMK A01 T02970133  RH  037%=      5-min Rain = 0
KTA1 200444Z 16011KT 30/13 A2996 RMK A01 T02960133  RH  037%=      5-min Rain = 0
KTA1 200445Z 16012KT 30/13 A2996 RMK A01 T02960133  RH  037%=      5-min Rain = 0
KTA1 200446Z 16014KT 30/13 A2996 RMK A01 T02950132  RH  037%=      5-min Rain = 0
KTA1 200447Z 16014KT 30/13 A2996 RMK A01 T02960133  RH  037%=      5-min Rain = 0
KTA1 200448Z 16013KT 30/13 A2996 RMK A01 T02950132  RH  037%=      5-min Rain = 0
KTA1 200449Z 16013KT 30/13 A2996 RMK A01 T02960132  RH  037%=      5-min Rain = 0
KTA1 200450Z 16011KT 30/13 A2996 RMK A01 T02960133  RH  037%=      5-min Rain = 0
KTA1 200451Z 16011KT 30/13 A2996 RMK A01 T02950133  RH  037%=      5-min Rain = 0
KTA1 200452Z 16012KT 30/13 A2996 RMK A01 T02950133  RH  037%=      5-min Rain = 0
KTA1 200453Z 17011KT 30/13 A2996 RMK A01 T02950133  RH  037%=      5-min Rain = 0
KTA1 200454Z 16011G16KT 29/13 A2996 RMK A01 T02940133  RH  037%=      5-min Rain = 0
KTA1 200455Z 16013KT 30/13 A2996 RMK A01 T02950133  RH  037%=      5-min Rain = 0
KTA1 200456Z 16011KT 30/13 A2996 RMK A01 T02950133  RH  037%=      5-min Rain = 0
KTA1 200457Z 17014KT 30/13 A2996 RMK A01 T02950134  RH  037%=      5-min Rain = 0
KTA1 200458Z 16013KT 30/13 A2996 RMK A01 T02950134  RH  037%=      5-min Rain = 0
KTA1 200459Z 16013KT 29/13 A2996 RMK A01 T02940134  RH  037%=      5-min Rain = 0

Page generated in 0.0927 seconds.